Time,TemperatureF,DewpointF,PressureIn,WindDirection,WindDirectionDegrees,WindSpeedMPH,WindSpeedGustMPH,Humidity,HourlyPrecipIn,Conditions,Clouds,dailyrainin,SolarRadiationWatts/m^2,SoftwareType,DateUTC
2013-01-30 00:00:00,67.3,47.5,29.72,North,355,12.2,16.2,49,0.00,,---,0.00,0.00,VWS V14.01,2013-01-30 06:00:00,
2013-01-30 00:03:00,68.6,49.2,29.68,NNE,30,8.2,16.2,50,0.00,,---,0.00,,VWS V14.01,2013-01-30 06:03:00,
2013-01-30 00:05:00,67.1,47.9,29.72,NNE,19,4.2,17.2,50,0.00,,---,0.00,0.00,VWS V14.01,2013-01-30 06:05:00,
2013-01-30 00:08:00,68.4,49.1,29.68,NNW,333,11.2,17.2,50,0.00,,---,0.00,,VWS V14.01,2013-01-30 06:08:00,
2013-01-30 00:10:00,67.1,47.9,29.72,North,9,8.2,15.2,50,0.00,,---,0.00,0.00,VWS V14.01,2013-01-30 06:10:00,
2013-01-30 00:13:00,68.3,49.5,29.68,North,5,7.2,16.2,51,0.00,,---,0.00,,VWS V14.01,2013-01-30 06:13:00,
2013-01-30 00:15:00,67.1,47.3,29.72,NNE,22,6.2,17.2,49,0.00,,---,0.00,0.00,VWS V14.01,2013-01-30 06:15:00,
2013-01-30 00:18:00,68.1,49.3,29.69,NNE,15,7.2,16.2,51,0.00,,---,0.00,,VWS V14.01,2013-01-30 06:18:00,
2013-01-30 00:20:00,66.9,47.1,29.72,North,349,13.2,16.2,49,0.00,,---,0.00,0.00,VWS V14.01,2013-01-30 06:20:00,
2013-01-30 00:23:00,67.9,49.1,29.69,NNW,344,12.2,16.2,51,0.00,,---,0.00,,VWS V14.01,2013-01-30 06:23:00,
2013-01-30 00:25:00,66.9,47.7,29.72,NNW,344,15.2,17.2,50,0.00,,---,0.00,0.00,VWS V14.01,2013-01-30 06:25:00,
2013-01-30 00:28:00,67.8,49.0,29.69,NNE,16,9.2,15.2,51,0.00,,---,0.00,,VWS V14.01,2013-01-30 06:28:00,
2013-01-30 00:30:00,66.9,47.1,29.73,North,5,11.2,19.2,49,0.00,,---,0.00,0.00,VWS V14.01,2013-01-30 06:30:00,
2013-01-30 00:33:00,67.6,48.8,29.69,NNW,338,12.2,18.2,51,0.00,,---,0.00,,VWS V14.01,2013-01-30 06:33:00,
2013-01-30 00:35:00,66.8,47.0,29.73,North,360,6.2,17.2,49,0.00,,---,0.00,0.00,VWS V14.01,2013-01-30 06:35:00,
2013-01-30 00:38:00,67.6,47.8,29.69,North,5,14.2,21.2,49,0.00,,---,0.00,,VWS V14.01,2013-01-30 06:38:00,
2013-01-30 00:40:00,66.8,45.4,29.73,NNW,346,7.2,21.2,46,0.00,,---,0.00,0.00,VWS V14.01,2013-01-30 06:40:00,
2013-01-30 00:43:00,67.4,48.1,29.69,NNE,17,16.2,18.2,50,0.00,,---,0.00,,VWS V14.01,2013-01-30 06:43:00,
2013-01-30 00:45:00,66.9,46.6,29.74,North,355,6.2,17.2,48,0.00,,---,0.00,0.00,VWS V14.01,2013-01-30 06:45:00,
2013-01-30 00:48:00,67.3,48.0,29.70,NE,44,8.2,16.2,50,0.00,,---,0.00,,VWS V14.01,2013-01-30 06:48:00,
2013-01-30 00:50:00,66.9,45.5,29.74,NNW,346,4.2,17.2,46,0.00,,---,0.00,0.00,VWS V14.01,2013-01-30 06:50:00,
2013-01-30 00:53:00,67.3,48.0,29.70,NNW,346,8.2,14.2,50,0.00,,---,0.00,,VWS V14.01,2013-01-30 06:53:00,
2013-01-30 00:55:00,66.9,45.5,29.74,North,5,14.2,19.2,46,0.00,,---,0.00,0.00,VWS V14.01,2013-01-30 06:55:00,
2013-01-30 00:58:00,67.3,48.0,29.70,NNW,343,12.2,16.2,50,0.00,,---,0.00,,VWS V14.01,2013-01-30 06:58:00,
2013-01-30 01:00:00,66.9,44.9,29.75,NNW,340,8.2,20.2,45,0.00,,---,0.00,0.00,VWS V14.01,2013-01-30 07:00:00,
2013-01-30 01:03:00,67.3,48.0,29.72,NNE,31,13.2,17.2,50,0.00,,---,0.00,,VWS V14.01,2013-01-30 07:03:00,
2013-01-30 01:05:00,66.8,45.4,29.75,North,355,11.2,21.2,46,0.00,,---,0.00,0.00,VWS V14.01,2013-01-30 07:05:00,
2013-01-30 01:08:00,67.1,47.9,29.72,NNE,13,5.2,15.2,50,0.00,,---,0.00,,VWS V14.01,2013-01-30 07:08:00,
2013-01-30 01:10:00,66.8,44.8,29.75,NNW,346,11.2,22.2,45,0.00,,---,0.00,0.00,VWS V14.01,2013-01-30 07:10:00,
2013-01-30 01:13:00,67.1,47.9,29.72,NNE,17,15.2,15.2,50,0.00,,---,0.00,,VWS V14.01,2013-01-30 07:13:00,
2013-01-30 01:15:00,66.6,44.6,29.75,NNW,342,6.2,16.2,45,0.00,,---,0.00,0.00,VWS V14.01,2013-01-30 07:15:00,
2013-01-30 01:18:00,67.1,47.9,29.72,NNE,17,11.2,13.2,50,0.00,,---,0.00,,VWS V14.01,2013-01-30 07:18:00,
2013-01-30 01:20:00,66.4,45.0,29.75,NNE,27,9.2,15.2,46,0.00,,---,0.00,0.00,VWS V14.01,2013-01-30 07:20:00,
2013-01-30 01:23:00,66.9,47.7,29.72,North,355,8.2,17.2,50,0.00,,---,0.00,,VWS V14.01,2013-01-30 07:23:00,
2013-01-30 01:25:00,66.4,45.6,29.75,NNW,348,14.2,19.2,47,0.00,,---,0.00,0.00,VWS V14.01,2013-01-30 07:25:00,
2013-01-30 01:28:00,66.9,47.1,29.72,NW,325,12.2,16.2,49,0.00,,---,0.00,,VWS V14.01,2013-01-30 07:28:00,
2013-01-30 01:30:00,66.4,45.6,29.76,NNW,347,8.2,16.2,47,0.00,,---,0.00,0.00,VWS V14.01,2013-01-30 07:30:00,
2013-01-30 01:33:00,66.9,47.1,29.73,NNE,25,14.2,15.2,49,0.00,,---,0.00,,VWS V14.01,2013-01-30 07:33:00,
2013-01-30 01:35:00,66.3,44.9,29.76,NNE,13,7.2,19.2,46,0.00,,---,0.00,0.00,VWS V14.01,2013-01-30 07:35:00,
2013-01-30 01:38:00,66.8,45.9,29.73,North,355,12.2,21.2,47,0.00,,---,0.00,,VWS V14.01,2013-01-30 07:38:00,
2013-01-30 01:40:00,66.3,46.0,29.76,North,355,9.2,17.2,48,0.00,,---,0.00,0.00,VWS V14.01,2013-01-30 07:40:00,
2013-01-30 01:43:00,66.9,46.0,29.73,NNE,27,8.2,14.2,47,0.00,,---,0.00,,VWS V14.01,2013-01-30 07:43:00,
2013-01-30 01:45:00,66.1,45.9,29.76,North,350,12.2,24.2,48,0.00,,---,0.00,0.00,VWS V14.01,2013-01-30 07:45:00,
2013-01-30 01:48:00,66.9,46.0,29.74,North,355,17.2,17.2,47,0.00,,---,0.00,,VWS V14.01,2013-01-30 07:48:00,
2013-01-30 01:50:00,66.0,45.8,29.76,NNE,26,13.2,16.2,48,0.00,,---,0.00,0.00,VWS V14.01,2013-01-30 07:50:00,
2013-01-30 01:53:00,66.9,45.5,29.74,North,10,12.2,19.2,46,0.00,,---,0.00,,VWS V14.01,2013-01-30 07:53:00,
2013-01-30 01:55:00,66.0,46.3,29.76,NE,46,10.2,18.2,49,0.00,,---,0.00,0.00,VWS V14.01,2013-01-30 07:55:00,
2013-01-30 01:58:00,66.9,45.5,29.74,NW,319,11.2,17.2,46,0.00,,---,0.00,,VWS V14.01,2013-01-30 07:58:00,
2013-01-30 02:00:00,65.8,45.6,29.77,NNW,327,12.2,22.2,48,0.00,,---,0.00,0.00,VWS V14.01,2013-01-30 08:00:00,
2013-01-30 02:03:00,66.9,44.9,29.75,North,355,12.2,21.2,45,0.00,,---,0.00,,VWS V14.01,2013-01-30 08:03:00,
2013-01-30 02:05:00,65.6,44.8,29.77,North,360,16.2,20.2,47,0.00,,---,0.00,0.00,VWS V14.01,2013-01-30 08:05:00,
2013-01-30 02:08:00,66.8,44.8,29.75,North,355,18.2,22.2,45,0.00,,---,0.00,,VWS V14.01,2013-01-30 08:08:00,
2013-01-30 02:10:00,65.5,43.6,29.77,North,360,18.2,19.2,45,0.00,,---,0.00,0.00,VWS V14.01,2013-01-30 08:10:00,
2013-01-30 02:13:00,66.8,44.8,29.75,NNE,32,10.2,15.2,45,0.00,,---,0.00,,VWS V14.01,2013-01-30 08:13:00,
2013-01-30 02:15:00,65.2,40.9,29.78,NNE,13,12.2,22.2,41,0.00,,---,0.00,0.00,VWS V14.01,2013-01-30 08:15:00,
2013-01-30 02:18:00,66.6,44.6,29.75,North,355,13.2,14.2,45,0.00,,---,0.00,,VWS V14.01,2013-01-30 08:18:00,
2013-01-30 02:20:00,65.0,40.1,29.78,North,351,12.2,20.2,40,0.00,,---,0.00,0.00,VWS V14.01,2013-01-30 08:20:00,
2013-01-30 02:23:00,66.4,47.7,29.75,North,350,12.2,19.2,51,0.00,,---,0.00,,VWS V14.01,2013-01-30 08:23:00,
2013-01-30 02:25:00,64.8,38.6,29.78,North,360,10.2,23.2,38,0.00,,---,0.00,0.00,VWS V14.01,2013-01-30 08:25:00,
2013-01-30 02:28:00,66.4,45.6,29.75,NNW,347,13.2,15.2,47,0.00,,---,0.00,,VWS V14.01,2013-01-30 08:28:00,
2013-01-30 02:30:00,64.7,38.5,29.80,North,350,11.2,23.2,38,0.00,,---,0.00,0.00,VWS V14.01,2013-01-30 08:30:00,
2013-01-30 02:33:00,66.3,44.9,29.76,NNW,338,11.2,19.2,46,0.00,,---,0.00,,VWS V14.01,2013-01-30 08:33:00,
2013-01-30 02:35:00,64.5,37.0,29.80,NNW,348,7.2,17.2,36,0.00,,---,0.00,0.00,VWS V14.01,2013-01-30 08:35:00,
2013-01-30 02:38:00,66.3,45.5,29.76,NNE,27,5.2,16.2,47,0.00,,---,0.00,,VWS V14.01,2013-01-30 08:38:00,
2013-01-30 02:40:00,64.5,36.3,29.80,North,10,19.2,20.2,35,0.00,,---,0.00,0.00,VWS V14.01,2013-01-30 08:40:00,
2013-01-30 02:43:00,66.1,45.9,29.76,North,11,13.2,24.2,48,0.00,,---,0.00,,VWS V14.01,2013-01-30 08:43:00,
2013-01-30 02:45:00,64.3,36.8,29.80,North,355,15.2,19.2,36,0.00,,---,0.00,0.00,VWS V14.01,2013-01-30 08:45:00,
2013-01-30 02:48:00,66.1,45.9,29.76,North,355,7.2,16.2,48,0.00,,---,0.00,,VWS V14.01,2013-01-30 08:48:00,
2013-01-30 02:50:00,64.2,37.4,29.80,WNW,295,6.2,19.2,37,0.00,,---,0.00,0.00,VWS V14.01,2013-01-30 08:50:00,
2013-01-30 02:53:00,66.0,46.3,29.76,North,355,13.2,16.2,49,0.00,,---,0.00,,VWS V14.01,2013-01-30 08:53:00,
2013-01-30 02:55:00,64.0,37.9,29.80,NNW,344,7.2,14.2,38,0.00,,---,0.00,0.00,VWS V14.01,2013-01-30 08:55:00,
2013-01-30 02:57:00,65.8,46.1,29.76,North,5,13.2,21.2,49,0.00,,---,0.00,,VWS V14.01,2013-01-30 08:57:00,
2013-01-30 03:00:00,64.0,39.2,29.80,North,360,10.2,14.2,40,0.00,,---,0.00,0.00,VWS V14.01,2013-01-30 09:00:00,
2013-01-30 03:03:00,65.8,45.6,29.77,NE,39,9.2,15.2,48,0.00,,---,0.00,,VWS V14.01,2013-01-30 09:03:00,
2013-01-30 03:05:00,63.9,37.8,29.80,NNE,23,15.2,18.2,38,0.00,,---,0.00,0.00,VWS V14.01,2013-01-30 09:05:00,
2013-01-30 03:07:00,65.5,45.3,29.77,NNW,332,5.2,16.2,48,0.00,,---,0.00,,VWS V14.01,2013-01-30 09:07:00,
2013-01-30 03:10:00,63.9,38.5,29.80,NNW,341,6.2,16.2,39,0.00,,---,0.00,0.00,VWS V14.01,2013-01-30 09:10:00,
2013-01-30 03:12:00,65.3,43.4,29.77,NNW,342,13.2,18.2,45,0.00,,---,0.00,,VWS V14.01,2013-01-30 09:12:00,
2013-01-30 03:15:00,63.7,33.3,29.81,NNE,12,17.2,20.2,32,0.00,,---,0.00,0.00,VWS V14.01,2013-01-30 09:15:00,
2013-01-30 03:17:00,65.2,42.2,29.78,North,360,10.2,16.2,43,0.00,,---,0.00,,VWS V14.01,2013-01-30 09:17:00,
2013-01-30 03:20:00,63.7,32.5,29.81,North,349,12.2,22.2,31,0.00,,---,0.00,0.00,VWS V14.01,2013-01-30 09:20:00,
2013-01-30 03:22:00,65.0,38.8,29.78,North,360,17.2,19.2,38,0.00,,---,0.00,,VWS V14.01,2013-01-30 09:22:00,
2013-01-30 03:25:00,63.7,33.3,29.81,NNW,328,4.2,18.2,32,0.00,,---,0.00,0.00,VWS V14.01,2013-01-30 09:25:00,
2013-01-30 03:27:00,64.8,38.6,29.78,NNW,336,8.2,15.2,38,0.00,,---,0.00,,VWS V14.01,2013-01-30 09:27:00,
2013-01-30 03:30:00,63.7,33.3,29.82,NNW,336,7.2,21.2,32,0.00,,---,0.00,0.00,VWS V14.01,2013-01-30 09:30:00,
2013-01-30 03:32:00,64.7,38.5,29.80,NNE,30,7.2,17.2,38,0.00,,---,0.00,,VWS V14.01,2013-01-30 09:32:00,
2013-01-30 03:35:00,63.5,33.9,29.82,NW,319,13.2,16.2,33,0.00,,---,0.00,0.00,VWS V14.01,2013-01-30 09:35:00,
2013-01-30 03:37:00,64.5,36.3,29.80,North,11,13.2,20.2,35,0.00,,---,0.00,,VWS V14.01,2013-01-30 09:37:00,
2013-01-30 03:40:00,63.4,34.6,29.82,NNW,336,12.2,17.2,34,0.00,,---,0.00,0.00,VWS V14.01,2013-01-30 09:40:00,
2013-01-30 03:42:00,64.5,36.3,29.80,NNW,348,10.2,19.2,35,0.00,,---,0.00,,VWS V14.01,2013-01-30 09:42:00,
2013-01-30 03:45:00,63.2,32.9,29.83,NNW,347,10.2,20.2,32,0.00,,---,0.00,0.00,VWS V14.01,2013-01-30 09:45:00,
2013-01-30 03:47:00,64.2,36.7,29.80,NNW,340,17.2,19.2,36,0.00,,---,0.00,,VWS V14.01,2013-01-30 09:47:00,
2013-01-30 03:50:00,63.1,29.5,29.83,NNW,331,15.2,22.2,28,0.00,,---,0.00,0.00,VWS V14.01,2013-01-30 09:50:00,
2013-01-30 03:52:00,64.2,38.1,29.80,NE,40,7.2,12.2,38,0.00,,---,0.00,,VWS V14.01,2013-01-30 09:52:00,
2013-01-30 03:55:00,63.1,32.0,29.83,NNW,342,12.2,20.2,31,0.00,,---,0.00,0.00,VWS V14.01,2013-01-30 09:55:00,
2013-01-30 03:57:00,64.0,38.6,29.80,NW,319,12.2,14.2,39,0.00,,---,0.00,,VWS V14.01,2013-01-30 09:57:00,
2013-01-30 04:00:00,62.9,31.0,29.84,NNW,348,14.2,22.2,30,0.00,,---,0.00,0.00,VWS V14.01,2013-01-30 10:00:00,
2013-01-30 04:02:00,64.0,39.8,29.80,NNE,13,14.2,15.2,41,0.00,,---,0.00,,VWS V14.01,2013-01-30 10:02:00,
2013-01-30 04:05:00,62.6,30.8,29.84,NW,311,16.2,18.2,30,0.00,,---,0.00,0.00,VWS V14.01,2013-01-30 10:05:00,
2013-01-30 04:07:00,63.9,38.5,29.80,North,11,15.2,16.2,39,0.00,,---,0.00,,VWS V14.01,2013-01-30 10:07:00,
2013-01-30 04:10:00,62.4,31.4,29.84,NNW,329,12.2,19.2,31,0.00,,---,0.00,0.00,VWS V14.01,2013-01-30 10:10:00,
2013-01-30 04:12:00,63.7,38.3,29.80,NNE,30,17.2,17.2,39,0.00,,---,0.00,,VWS V14.01,2013-01-30 10:12:00,
2013-01-30 04:15:00,62.3,29.7,29.84,NNW,344,10.2,19.2,29,0.00,,---,0.00,0.00,VWS V14.01,2013-01-30 10:15:00,
2013-01-30 04:17:00,63.7,33.3,29.81,North,9,10.2,22.2,32,0.00,,---,0.00,,VWS V14.01,2013-01-30 10:17:00,
2013-01-30 04:20:00,62.1,30.3,29.84,NNW,338,6.2,19.2,30,0.00,,---,0.00,0.00,VWS V14.01,2013-01-30 10:20:00,
2013-01-30 04:22:00,63.7,31.7,29.81,NNW,327,10.2,18.2,30,0.00,,---,0.00,,VWS V14.01,2013-01-30 10:22:00,
2013-01-30 04:25:00,62.0,31.0,29.84,NW,315,16.2,16.2,31,0.00,,---,0.00,0.00,VWS V14.01,2013-01-30 10:25:00,
2013-01-30 04:27:00,63.7,32.5,29.81,NW,324,12.2,21.2,31,0.00,,---,0.00,,VWS V14.01,2013-01-30 10:27:00,
2013-01-30 04:30:00,62.0,30.2,29.86,NW,317,6.2,22.2,30,0.00,,---,0.00,0.00,VWS V14.01,2013-01-30 10:30:00,
2013-01-30 04:32:00,63.7,34.1,29.82,WNW,302,10.2,13.2,33,0.00,,---,0.00,,VWS V14.01,2013-01-30 10:32:00,
2013-01-30 04:35:00,61.6,29.1,29.86,North,360,9.2,19.2,29,0.00,,---,0.00,0.00,VWS V14.01,2013-01-30 10:35:00,
2013-01-30 04:37:00,63.5,33.9,29.82,NNW,335,11.2,17.2,33,0.00,,---,0.00,,VWS V14.01,2013-01-30 10:37:00,
2013-01-30 04:40:00,61.5,29.0,29.86,NNW,334,11.2,19.2,29,0.00,,---,0.00,0.00,VWS V14.01,2013-01-30 10:40:00,
2013-01-30 04:42:00,63.4,33.8,29.82,North,5,19.2,19.2,33,0.00,,---,0.00,,VWS V14.01,2013-01-30 10:42:00,
2013-01-30 04:45:00,61.3,28.8,29.87,North,5,12.2,24.2,29,0.00,,---,0.00,0.00,VWS V14.01,2013-01-30 10:45:00,
2013-01-30 04:47:00,63.2,34.4,29.83,NNW,337,6.2,12.2,34,0.00,,---,0.00,,VWS V14.01,2013-01-30 10:47:00,
2013-01-30 04:50:00,61.0,27.7,29.87,WNW,286,5.2,21.2,28,0.00,,---,0.00,0.00,VWS V14.01,2013-01-30 10:50:00,
2013-01-30 04:52:00,63.1,30.4,29.83,NW,312,12.2,18.2,29,0.00,,---,0.00,,VWS V14.01,2013-01-30 10:52:00,
2013-01-30 04:55:00,60.9,29.3,29.87,NW,304,12.2,18.2,30,0.00,,---,0.00,0.00,VWS V14.01,2013-01-30 10:55:00,
2013-01-30 04:57:00,62.9,31.0,29.83,NNW,346,13.2,20.2,30,0.00,,---,0.00,,VWS V14.01,2013-01-30 10:57:00,
2013-01-30 05:00:00,60.7,29.1,29.88,NNW,341,9.2,22.2,30,0.00,,---,0.00,0.00,VWS V14.01,2013-01-30 11:00:00,
2013-01-30 05:02:00,62.7,30.8,29.84,NNW,342,11.2,15.2,30,0.00,,---,0.00,,VWS V14.01,2013-01-30 11:02:00,
2013-01-30 05:05:00,60.5,28.9,29.88,NW,318,12.2,21.2,30,0.00,,---,0.00,0.00,VWS V14.01,2013-01-30 11:05:00,
2013-01-30 05:07:00,62.6,29.9,29.84,North,355,14.2,19.2,29,0.00,,---,0.00,,VWS V14.01,2013-01-30 11:07:00,
2013-01-30 05:10:00,60.4,28.0,29.88,North,360,7.2,20.2,29,0.00,,---,0.00,0.00,VWS V14.01,2013-01-30 11:10:00,
2013-01-30 05:12:00,62.4,29.8,29.84,NNE,24,18.2,19.2,29,0.00,,---,0.00,,VWS V14.01,2013-01-30 11:12:00,
2013-01-30 05:15:00,60.2,30.2,29.89,NW,313,5.2,17.2,32,0.00,,---,0.00,0.00,VWS V14.01,2013-01-30 11:15:00,
2013-01-30 05:17:00,62.3,29.7,29.84,North,349,11.2,19.2,29,0.00,,---,0.00,,VWS V14.01,2013-01-30 11:17:00,
2013-01-30 05:20:00,60.1,28.6,29.89,NNW,327,7.2,18.2,30,0.00,,---,0.00,0.00,VWS V14.01,2013-01-30 11:20:00,
2013-01-30 05:22:00,62.1,30.3,29.84,NNE,12,11.2,14.2,30,0.00,,---,0.00,,VWS V14.01,2013-01-30 11:22:00,
2013-01-30 05:25:00,59.8,29.1,29.89,NW,316,9.2,18.2,31,0.00,,---,0.00,0.00,VWS V14.01,2013-01-30 11:25:00,
2013-01-30 05:27:00,62.0,31.0,29.84,NNW,333,13.2,16.2,31,0.00,,---,0.00,,VWS V14.01,2013-01-30 11:27:00,
2013-01-30 05:30:00,59.8,29.1,29.90,NW,318,15.2,18.2,31,0.00,,---,0.00,0.00,VWS V14.01,2013-01-30 11:30:00,
2013-01-30 05:32:00,61.8,30.9,29.85,NNW,342,15.2,17.2,31,0.00,,---,0.00,,VWS V14.01,2013-01-30 11:32:00,
2013-01-30 05:35:00,59.8,29.1,29.90,NNW,336,11.2,17.2,31,0.00,,---,0.00,0.00,VWS V14.01,2013-01-30 11:35:00,
2013-01-30 05:37:00,61.6,29.1,29.85,NW,313,14.2,16.2,29,0.00,,---,0.00,,VWS V14.01,2013-01-30 11:37:00,
2013-01-30 05:40:00,59.8,29.1,29.90,NNW,328,7.2,19.2,31,0.00,,---,0.00,0.00,VWS V14.01,2013-01-30 11:40:00,
2013-01-30 05:42:00,61.3,29.6,29.85,NW,319,17.2,17.2,30,0.00,,---,0.00,,VWS V14.01,2013-01-30 11:42:00,
2013-01-30 05:45:00,59.6,29.0,29.92,NW,311,6.2,19.2,31,0.00,,---,0.00,0.00,VWS V14.01,2013-01-30 11:45:00,
2013-01-30 05:47:00,61.2,28.7,29.87,North,355,15.2,19.2,29,0.00,,---,0.00,,VWS V14.01,2013-01-30 11:47:00,
2013-01-30 05:50:00,59.6,28.1,29.92,NE,36,23.2,23.2,30,0.00,,---,0.00,0.00,VWS V14.01,2013-01-30 11:50:00,
2013-01-30 05:52:00,61.0,30.2,29.87,North,5,10.2,14.2,31,0.00,,---,0.00,,VWS V14.01,2013-01-30 11:52:00,
2013-01-30 05:55:00,59.6,28.1,29.92,NW,319,9.2,23.2,30,0.00,,---,0.00,0.00,VWS V14.01,2013-01-30 11:55:00,
2013-01-30 05:57:00,60.7,28.3,29.87,NW,320,18.2,18.2,29,0.00,,---,0.00,,VWS V14.01,2013-01-30 11:57:00,
2013-01-30 06:00:00,59.5,28.9,29.93,NNW,328,11.2,21.2,31,0.00,,---,0.00,0.00,VWS V14.01,2013-01-30 12:00:00,
2013-01-30 06:02:00,60.7,28.3,29.88,NNW,335,10.2,21.2,29,0.00,,---,0.00,,VWS V14.01,2013-01-30 12:02:00,
2013-01-30 06:05:00,59.5,28.9,29.93,NNW,328,6.2,20.2,31,0.00,,---,0.00,0.00,VWS V14.01,2013-01-30 12:05:00,
2013-01-30 06:07:00,60.5,28.9,29.88,North,360,11.2,16.2,30,0.00,,---,0.00,,VWS V14.01,2013-01-30 12:07:00,
2013-01-30 06:10:00,59.3,30.2,29.93,NW,323,8.2,16.2,33,0.00,,---,0.00,0.00,VWS V14.01,2013-01-30 12:10:00,
2013-01-30 06:12:00,60.4,29.6,29.88,NNW,338,11.2,16.2,31,0.00,,---,0.00,,VWS V14.01,2013-01-30 12:12:00,
2013-01-30 06:15:00,59.0,29.2,29.94,NW,317,4.2,11.2,32,0.00,,---,0.00,0.00,VWS V14.01,2013-01-30 12:15:00,
2013-01-30 06:17:00,60.2,29.5,29.89,NNW,331,5.2,14.2,31,0.00,,---,0.00,,VWS V14.01,2013-01-30 12:17:00,
2013-01-30 06:20:00,58.7,28.9,29.94,North,5,8.2,14.2,32,0.00,,---,0.00,0.00,VWS V14.01,2013-01-30 12:20:00,
2013-01-30 06:22:00,59.9,30.0,29.89,NW,313,12.2,14.2,32,0.00,,---,0.00,,VWS V14.01,2013-01-30 12:22:00,
2013-01-30 06:25:00,58.4,27.9,29.94,WNW,288,14.2,14.2,31,0.00,,---,0.00,0.00,VWS V14.01,2013-01-30 12:25:00,
2013-01-30 06:27:00,59.9,29.2,29.89,NNW,347,11.2,18.2,31,0.00,,---,0.00,,VWS V14.01,2013-01-30 12:27:00,
2013-01-30 06:30:00,58.3,27.8,29.95,NW,313,7.2,15.2,31,0.00,,---,0.00,0.00,VWS V14.01,2013-01-30 12:30:00,
2013-01-30 06:32:00,59.8,29.1,29.90,NW,311,5.2,15.2,31,0.00,,---,0.00,,VWS V14.01,2013-01-30 12:32:00,
2013-01-30 06:35:00,58.0,26.8,29.95,WNW,295,19.2,19.2,30,0.00,,---,0.00,0.00,VWS V14.01,2013-01-30 12:35:00,
2013-01-30 06:37:00,59.8,29.1,29.90,NNW,336,17.2,19.2,31,0.00,,---,0.00,,VWS V14.01,2013-01-30 12:37:00,
2013-01-30 06:40:00,58.1,26.9,29.95,WNW,300,11.2,19.2,30,0.00,,---,0.00,0.00,VWS V14.01,2013-01-30 12:40:00,
2013-01-30 06:42:00,59.6,29.0,29.90,NNW,335,14.2,17.2,31,0.00,,---,0.00,,VWS V14.01,2013-01-30 12:42:00,
2013-01-30 06:45:00,58.3,27.8,29.96,NNW,346,8.2,18.2,31,0.00,,---,0.00,0.00,VWS V14.01,2013-01-30 12:45:00,
2013-01-30 06:47:00,59.6,29.0,29.92,North,349,6.2,19.2,31,0.00,,---,0.00,,VWS V14.01,2013-01-30 12:47:00,
2013-01-30 06:50:00,58.3,27.0,29.96,WNW,284,12.2,17.2,30,0.00,,---,0.00,0.00,VWS V14.01,2013-01-30 12:50:00,
2013-01-30 06:52:00,59.6,27.3,29.92,NNW,345,10.2,23.2,29,0.00,,---,0.00,,VWS V14.01,2013-01-30 12:52:00,
2013-01-30 06:55:00,58.3,27.8,29.96,NW,309,5.2,16.2,31,0.00,,---,0.00,0.00,VWS V14.01,2013-01-30 12:55:00,
2013-01-30 06:57:00,59.6,29.0,29.92,WNW,285,8.2,15.2,31,0.00,,---,0.00,,VWS V14.01,2013-01-30 12:57:00,
2013-01-30 07:00:00,58.4,27.1,29.97,NNW,327,8.2,17.2,30,0.00,,---,0.00,0.00,VWS V14.01,2013-01-30 13:00:00,
2013-01-30 07:02:00,59.6,29.0,29.93,North,355,12.2,20.2,31,0.00,,---,0.00,,VWS V14.01,2013-01-30 13:02:00,
2013-01-30 07:05:00,58.4,27.1,29.97,NW,313,9.2,17.2,30,0.00,,---,0.00,0.00,VWS V14.01,2013-01-30 13:05:00,
2013-01-30 07:07:00,59.5,29.6,29.93,NNW,333,13.2,16.2,32,0.00,,---,0.00,,VWS V14.01,2013-01-30 13:07:00,
2013-01-30 07:10:00,58.6,28.1,29.97,North,355,11.2,17.2,31,0.00,,---,0.00,0.00,VWS V14.01,2013-01-30 13:10:00,
2013-01-30 07:12:00,59.3,30.2,29.93,NW,304,7.2,11.2,33,0.00,,---,0.00,,VWS V14.01,2013-01-30 13:12:00,
2013-01-30 07:15:00,58.6,27.3,29.98,NW,306,9.2,17.2,30,0.00,,---,0.00,0.00,VWS V14.01,2013-01-30 13:15:00,
2013-01-30 07:17:00,58.9,29.1,29.94,NW,317,10.2,13.2,32,0.00,,---,0.00,,VWS V14.01,2013-01-30 13:17:00,
2013-01-30 07:20:00,58.4,27.1,29.98,NNW,332,12.2,21.2,30,0.00,,---,0.00,0.00,VWS V14.01,2013-01-30 13:20:00,
2013-01-30 07:22:00,58.6,28.1,29.94,NW,315,5.2,12.2,31,0.00,,---,0.00,,VWS V14.01,2013-01-30 13:22:00,
2013-01-30 07:25:00,58.7,27.4,29.98,NNW,329,5.2,17.2,30,0.00,,---,0.00,0.00,VWS V14.01,2013-01-30 13:25:00,
2013-01-30 07:27:00,58.4,27.9,29.94,NW,316,7.2,15.2,31,0.00,,---,0.00,,VWS V14.01,2013-01-30 13:27:00,
2013-01-30 07:30:00,59.0,27.6,29.99,NW,323,10.2,18.2,30,0.00,,---,0.00,0.00,VWS V14.01,2013-01-30 13:30:00,
2013-01-30 07:32:00,58.3,27.8,29.95,WNW,303,4.2,12.2,31,0.00,,---,0.00,,VWS V14.01,2013-01-30 13:32:00,
2013-01-30 07:35:00,59.0,27.6,29.99,NW,319,15.2,20.2,30,0.00,,---,0.00,0.00,VWS V14.01,2013-01-30 13:35:00,
2013-01-30 07:37:00,58.0,26.8,29.95,WNW,300,6.2,19.2,30,0.00,,---,0.00,,VWS V14.01,2013-01-30 13:37:00,
2013-01-30 07:40:00,59.0,27.6,29.99,NW,325,8.2,16.2,30,0.00,,---,0.00,0.00,VWS V14.01,2013-01-30 13:40:00,
2013-01-30 07:42:00,58.1,26.9,29.95,NW,312,6.2,11.2,30,0.00,,---,0.00,,VWS V14.01,2013-01-30 13:42:00,
2013-01-30 07:45:00,59.3,27.9,30.00,NW,317,13.2,16.2,30,0.00,,---,0.00,0.00,VWS V14.01,2013-01-30 13:45:00,
2013-01-30 07:47:00,58.3,27.8,29.96,WNW,302,7.2,14.2,31,0.00,,---,0.00,,VWS V14.01,2013-01-30 13:47:00,
2013-01-30 07:50:00,59.3,27.9,30.00,NW,319,5.2,16.2,30,0.00,,---,0.00,0.00,VWS V14.01,2013-01-30 13:50:00,
2013-01-30 07:52:00,58.3,27.8,29.96,WNW,288,12.2,16.2,31,0.00,,---,0.00,,VWS V14.01,2013-01-30 13:52:00,
2013-01-30 07:55:00,59.6,29.0,30.00,NW,306,7.2,13.2,31,0.00,,---,0.00,0.00,VWS V14.01,2013-01-30 13:55:00,
2013-01-30 07:57:00,58.3,27.8,29.96,NNW,344,7.2,14.2,31,0.00,,---,0.00,,VWS V14.01,2013-01-30 13:57:00,
2013-01-30 08:00:00,59.9,28.4,30.01,NW,315,6.2,16.2,30,0.00,,---,0.00,0.00,VWS V14.01,2013-01-30 14:00:00,
2013-01-30 08:02:00,58.4,27.1,29.97,NW,315,6.2,17.2,30,0.00,,---,0.00,,VWS V14.01,2013-01-30 14:02:00,
2013-01-30 08:05:00,59.9,27.6,30.01,WNW,296,6.2,19.2,29,0.00,,---,0.00,0.00,VWS V14.01,2013-01-30 14:05:00,
2013-01-30 08:07:00,58.4,27.9,29.97,WNW,285,14.2,14.2,31,0.00,,---,0.00,,VWS V14.01,2013-01-30 14:07:00,
2013-01-30 08:10:00,59.9,27.6,30.01,WNW,291,18.2,18.2,29,0.00,,---,0.00,0.00,VWS V14.01,2013-01-30 14:10:00,
2013-01-30 08:12:00,58.6,28.1,29.97,NNW,328,6.2,16.2,31,0.00,,---,0.00,,VWS V14.01,2013-01-30 14:12:00,
2013-01-30 08:15:00,59.9,26.7,30.03,North,360,7.2,18.2,28,0.00,,---,0.00,0.00,VWS V14.01,2013-01-30 14:15:00,
2013-01-30 08:17:00,58.6,27.3,29.98,North,360,8.2,17.2,30,0.00,,---,0.00,,VWS V14.01,2013-01-30 14:17:00,
2013-01-30 08:20:00,60.1,28.6,30.03,NW,309,14.2,19.2,30,0.00,,---,0.00,0.00,VWS V14.01,2013-01-30 14:20:00,
2013-01-30 08:22:00,58.6,28.1,29.98,WNW,300,14.2,14.2,31,0.00,,---,0.00,,VWS V14.01,2013-01-30 14:22:00,
2013-01-30 08:25:00,60.2,28.7,30.03,WNW,303,13.2,18.2,30,0.00,,---,0.00,0.00,VWS V14.01,2013-01-30 14:25:00,
2013-01-30 08:27:00,58.9,27.5,29.98,NW,311,8.2,18.2,30,0.00,,---,0.00,,VWS V14.01,2013-01-30 14:27:00,
2013-01-30 08:30:00,60.2,27.0,30.04,West,273,13.2,19.2,28,0.00,,---,0.00,0.00,VWS V14.01,2013-01-30 14:30:00,
2013-01-30 08:32:00,59.2,27.8,29.99,NW,317,14.2,20.2,30,0.00,,---,0.00,,VWS V14.01,2013-01-30 14:32:00,
2013-01-30 08:35:00,60.2,27.0,30.04,NW,309,19.2,22.2,28,0.00,,---,0.00,0.00,VWS V14.01,2013-01-30 14:35:00,
2013-01-30 08:37:00,59.0,27.6,29.99,NW,305,7.2,16.2,30,0.00,,---,0.00,,VWS V14.01,2013-01-30 14:37:00,
2013-01-30 08:40:00,60.4,26.3,30.04,WNW,296,17.2,20.2,27,0.00,,---,0.00,0.00,VWS V14.01,2013-01-30 14:40:00,
2013-01-30 08:42:00,59.2,28.6,29.99,NW,308,4.2,12.2,31,0.00,,---,0.00,,VWS V14.01,2013-01-30 14:42:00,
2013-01-30 08:45:00,60.4,26.3,30.04,North,360,16.2,21.2,27,0.00,,---,0.00,0.00,VWS V14.01,2013-01-30 14:45:00,
2013-01-30 08:47:00,59.3,27.9,30.00,NW,312,12.2,16.2,30,0.00,,---,0.00,,VWS V14.01,2013-01-30 14:47:00,
2013-01-30 08:50:00,60.7,27.4,30.04,NW,323,12.2,23.2,28,0.00,,---,0.00,0.00,VWS V14.01,2013-01-30 14:50:00,
2013-01-30 08:52:00,59.5,28.1,30.00,NW,316,8.2,12.2,30,0.00,,---,0.00,,VWS V14.01,2013-01-30 14:52:00,
2013-01-30 08:55:00,60.5,25.5,30.04,NNW,337,13.2,22.2,26,0.00,,---,0.00,0.00,VWS V14.01,2013-01-30 14:55:00,
2013-01-30 08:57:00,59.6,29.0,30.00,WNW,300,11.2,12.2,31,0.00,,---,0.00,,VWS V14.01,2013-01-30 14:57:00,
2013-01-30 09:00:00,61.0,26.8,30.04,WNW,302,23.2,23.2,27,0.00,,---,0.00,0.00,VWS V14.01,2013-01-30 15:00:00,
2013-01-30 09:02:00,59.9,27.6,30.01,WNW,291,12.2,19.2,29,0.00,,---,0.00,,VWS V14.01,2013-01-30 15:02:00,
2013-01-30 09:05:00,60.7,25.6,30.04,WNW,298,16.2,24.2,26,0.00,,---,0.00,0.00,VWS V14.01,2013-01-30 15:05:00,
2013-01-30 09:07:00,59.9,27.6,30.01,WNW,288,14.2,17.2,29,0.00,,---,0.00,,VWS V14.01,2013-01-30 15:07:00,
2013-01-30 09:10:00,60.9,24.9,30.04,WNW,296,15.2,27.2,25,0.00,,---,0.00,0.00,VWS V14.01,2013-01-30 15:10:00,
2013-01-30 09:12:00,59.9,27.6,30.01,NW,315,10.2,18.2,29,0.00,,---,0.00,,VWS V14.01,2013-01-30 15:12:00,
2013-01-30 09:15:00,61.3,27.1,30.05,WNW,293,17.2,25.2,27,0.00,,---,0.00,0.00,VWS V14.01,2013-01-30 15:15:00,
2013-01-30 09:17:00,59.9,27.6,30.03,WNW,292,12.2,16.2,29,0.00,,---,0.00,,VWS V14.01,2013-01-30 15:17:00,
2013-01-30 09:20:00,61.3,25.2,30.05,NW,324,11.2,24.2,25,0.00,,---,0.00,0.00,VWS V14.01,2013-01-30 15:20:00,
2013-01-30 09:22:00,60.1,27.8,30.03,WNW,302,4.2,18.2,29,0.00,,---,0.00,,VWS V14.01,2013-01-30 15:22:00,
2013-01-30 09:25:00,61.8,26.6,30.05,North,360,10.2,22.2,26,0.00,,---,0.00,0.00,VWS V14.01,2013-01-30 15:25:00,
2013-01-30 09:27:00,60.4,27.2,30.03,West,262,10.2,19.2,28,0.00,,---,0.00,,VWS V14.01,2013-01-30 15:27:00,
2013-01-30 09:30:00,61.8,25.6,30.06,NNW,348,9.2,25.2,25,0.00,,---,0.00,0.00,VWS V14.01,2013-01-30 15:30:00,
2013-01-30 09:32:00,60.2,27.0,30.04,WNW,285,11.2,17.2,28,0.00,,---,0.00,,VWS V14.01,2013-01-30 15:32:00,
2013-01-30 09:35:00,62.0,22.8,30.06,NW,318,7.2,20.2,22,0.00,,---,0.00,0.00,VWS V14.01,2013-01-30 15:35:00,
2013-01-30 09:37:00,60.4,27.2,30.04,NW,319,6.2,19.2,28,0.00,,---,0.00,,VWS V14.01,2013-01-30 15:37:00,
2013-01-30 09:40:00,62.3,26.1,30.06,WNW,294,19.2,24.2,25,0.00,,---,0.00,0.00,VWS V14.01,2013-01-30 15:40:00,
2013-01-30 09:42:00,60.4,25.4,30.04,NW,315,14.2,21.2,26,0.00,,---,0.00,,VWS V14.01,2013-01-30 15:42:00,
2013-01-30 09:45:00,62.4,26.1,30.06,NW,309,20.2,23.2,25,0.00,,---,0.00,0.00,VWS V14.01,2013-01-30 15:45:00,
2013-01-30 09:47:00,60.4,26.3,30.04,North,360,13.2,23.2,27,0.00,,---,0.00,,VWS V14.01,2013-01-30 15:47:00,
2013-01-30 09:50:00,62.4,24.1,30.06,WNW,289,19.2,25.2,23,0.00,,---,0.00,0.00,VWS V14.01,2013-01-30 15:50:00,
2013-01-30 09:52:00,60.7,27.4,30.04,NW,320,18.2,21.2,28,0.00,,---,0.00,,VWS V14.01,2013-01-30 15:52:00,
2013-01-30 09:55:00,62.4,24.1,30.06,NNW,344,18.2,29.2,23,0.00,,---,0.00,0.00,VWS V14.01,2013-01-30 15:55:00,
2013-01-30 09:57:00,60.5,26.4,30.04,North,355,12.2,18.2,27,0.00,,---,0.00,,VWS V14.01,2013-01-30 15:57:00,
2013-01-30 10:00:00,62.3,24.1,30.06,WNW,292,18.2,25.2,23,0.00,,---,0.00,0.00,VWS V14.01,2013-01-30 16:00:00,
2013-01-30 10:02:00,61.0,27.7,30.04,WNW,303,22.2,23.2,28,0.00,,---,0.00,,VWS V14.01,2013-01-30 16:02:00,
2013-01-30 10:05:00,62.3,24.1,30.06,NNW,336,10.2,26.2,23,0.00,,---,0.00,0.00,VWS V14.01,2013-01-30 16:05:00,
2013-01-30 10:07:00,60.7,25.6,30.04,West,281,9.2,24.2,26,0.00,,---,0.00,,VWS V14.01,2013-01-30 16:07:00,
2013-01-30 10:10:00,62.6,24.3,30.06,NW,314,13.2,27.2,23,0.00,,---,0.00,0.00,VWS V14.01,2013-01-30 16:10:00,
2013-01-30 10:12:00,60.9,25.8,30.04,WNW,298,5.2,19.2,26,0.00,,---,0.00,,VWS V14.01,2013-01-30 16:12:00,
2013-01-30 10:15:00,62.6,24.3,30.06,WNW,295,10.2,25.2,23,0.00,,---,0.00,0.00,VWS V14.01,2013-01-30 16:15:00,
2013-01-30 10:17:00,61.3,25.2,30.05,NNW,338,24.2,24.2,25,0.00,,---,0.00,,VWS V14.01,2013-01-30 16:17:00,
2013-01-30 10:20:00,62.7,24.4,30.06,WNW,286,14.2,23.2,23,0.00,,---,0.00,0.00,VWS V14.01,2013-01-30 16:20:00,
2013-01-30 10:22:00,61.5,25.4,30.05,WNW,294,18.2,22.2,25,0.00,,---,0.00,,VWS V14.01,2013-01-30 16:22:00,
2013-01-30 10:25:00,62.7,24.4,30.06,NNW,348,15.2,26.2,23,0.00,,---,0.00,0.00,VWS V14.01,2013-01-30 16:25:00,
2013-01-30 10:27:00,61.8,26.6,30.05,NNW,336,11.2,21.2,26,0.00,,---,0.00,,VWS V14.01,2013-01-30 16:27:00,
2013-01-30 10:30:00,62.7,24.4,30.06,NW,321,14.2,28.2,23,0.00,,---,0.00,0.00,VWS V14.01,2013-01-30 16:30:00,
2013-01-30 10:32:00,62.0,25.8,30.06,NNW,332,15.2,20.2,25,0.00,,---,0.00,,VWS V14.01,2013-01-30 16:32:00,
2013-01-30 10:35:00,62.7,24.4,30.06,NNW,332,10.2,25.2,23,0.00,,---,0.00,0.00,VWS V14.01,2013-01-30 16:35:00,
2013-01-30 10:37:00,62.0,26.8,30.06,NW,317,9.2,17.2,26,0.00,,---,0.00,,VWS V14.01,2013-01-30 16:37:00,
2013-01-30 10:40:00,63.2,24.8,30.06,NW,304,8.2,23.2,23,0.00,,---,0.00,0.00,VWS V14.01,2013-01-30 16:40:00,
2013-01-30 10:42:00,62.1,24.9,30.06,NNW,332,11.2,22.2,24,0.00,,---,0.00,,VWS V14.01,2013-01-30 16:42:00,
2013-01-30 10:45:00,63.4,26.0,30.05,NE,36,18.2,26.2,24,0.00,,---,0.00,0.00,VWS V14.01,2013-01-30 16:45:00,
2013-01-30 10:47:00,62.4,26.1,30.06,West,279,14.2,20.2,25,0.00,,---,0.00,,VWS V14.01,2013-01-30 16:47:00,
2013-01-30 10:50:00,63.5,25.1,30.05,WNW,300,14.2,26.2,23,0.00,,---,0.00,0.00,VWS V14.01,2013-01-30 16:50:00,
2013-01-30 10:52:00,62.4,24.1,30.06,North,360,11.2,27.2,23,0.00,,---,0.00,,VWS V14.01,2013-01-30 16:52:00,
2013-01-30 10:55:00,63.9,27.4,30.05,NNW,339,14.2,24.2,25,0.00,,---,0.00,0.00,VWS V14.01,2013-01-30 16:55:00,
2013-01-30 10:57:00,62.3,23.0,30.06,NNW,330,13.2,21.2,22,0.00,,---,0.00,,VWS V14.01,2013-01-30 16:57:00,
2013-01-30 11:00:00,63.9,26.4,30.05,NW,314,19.2,19.2,24,0.00,,---,0.00,0.00,VWS V14.01,2013-01-30 17:00:00,
2013-01-30 11:02:00,62.3,23.0,30.06,WNW,302,18.2,26.2,22,0.00,,---,0.00,,VWS V14.01,2013-01-30 17:02:00,
2013-01-30 11:05:00,63.9,25.4,30.05,NNW,346,8.2,24.2,23,0.00,,---,0.00,0.00,VWS V14.01,2013-01-30 17:05:00,
2013-01-30 11:07:00,62.3,24.1,30.06,NNW,329,17.2,27.2,23,0.00,,---,0.00,,VWS V14.01,2013-01-30 17:07:00,
2013-01-30 11:10:00,64.2,24.6,30.05,NW,322,10.2,20.2,22,0.00,,---,0.00,0.00,VWS V14.01,2013-01-30 17:10:00,
2013-01-30 11:12:00,62.4,24.1,30.06,NW,313,15.2,23.2,23,0.00,,---,0.00,,VWS V14.01,2013-01-30 17:12:00,
2013-01-30 11:15:00,65.0,28.4,30.04,NNW,329,7.2,18.2,25,0.00,,---,0.00,0.00,VWS V14.01,2013-01-30 17:15:00,
2013-01-30 11:17:00,62.6,23.2,30.06,WNW,297,14.2,22.2,22,0.00,,---,0.00,,VWS V14.01,2013-01-30 17:17:00,
2013-01-30 11:20:00,64.8,27.2,30.04,NNE,31,14.2,17.2,24,0.00,,---,0.00,0.00,VWS V14.01,2013-01-30 17:20:00,
2013-01-30 11:22:00,62.6,24.3,30.06,WNW,300,10.2,23.2,23,0.00,,---,0.00,,VWS V14.01,2013-01-30 17:22:00,
2013-01-30 11:25:00,65.0,25.3,30.04,WNW,282,17.2,21.2,22,0.00,,---,0.00,0.00,VWS V14.01,2013-01-30 17:25:00,
2013-01-30 11:27:00,62.7,25.4,30.06,NNW,344,16.2,28.2,24,0.00,,---,0.00,,VWS V14.01,2013-01-30 17:27:00,
2013-01-30 11:30:00,65.2,24.3,30.04,North,360,11.2,18.2,21,0.00,,---,0.00,0.00,VWS V14.01,2013-01-30 17:30:00,
2013-01-30 11:32:00,62.7,24.4,30.06,NW,314,11.2,25.2,23,0.00,,---,0.00,,VWS V14.01,2013-01-30 17:32:00,
2013-01-30 11:35:00,65.0,25.3,30.04,NW,309,12.2,22.2,22,0.00,,---,0.00,0.00,VWS V14.01,2013-01-30 17:35:00,
2013-01-30 11:37:00,62.9,24.6,30.06,NW,311,23.2,23.2,23,0.00,,---,0.00,,VWS V14.01,2013-01-30 17:37:00,
2013-01-30 11:40:00,64.8,25.1,30.04,NW,317,13.2,18.2,22,0.00,,---,0.00,0.00,VWS V14.01,2013-01-30 17:40:00,
2013-01-30 11:42:00,63.2,25.8,30.06,NW,309,24.2,26.2,24,0.00,,---,0.00,,VWS V14.01,2013-01-30 17:42:00,
2013-01-30 11:45:00,65.0,26.3,30.03,NNW,333,8.2,18.2,23,0.00,,---,0.00,0.00,VWS V14.01,2013-01-30 17:45:00,
2013-01-30 11:47:00,63.5,26.1,30.05,NW,311,17.2,26.2,24,0.00,,---,0.00,,VWS V14.01,2013-01-30 17:47:00,
2013-01-30 11:50:00,65.2,27.5,30.03,NW,309,7.2,22.2,24,0.00,,---,0.00,0.00,VWS V14.01,2013-01-30 17:50:00,
2013-01-30 11:52:00,63.5,26.1,30.05,NW,306,14.2,18.2,24,0.00,,---,0.00,,VWS V14.01,2013-01-30 17:52:00,
2013-01-30 11:55:00,65.2,26.5,30.03,NNW,333,15.2,21.2,23,0.00,,---,0.00,0.00,VWS V14.01,2013-01-30 17:55:00,
2013-01-30 11:57:00,63.9,26.4,30.05,NW,324,16.2,17.2,24,0.00,,---,0.00,,VWS V14.01,2013-01-30 17:57:00,
2013-01-30 12:00:00,65.2,25.4,30.03,North,355,15.2,19.2,22,0.00,,---,0.00,0.00,VWS V14.01,2013-01-30 18:00:00,
2013-01-30 12:02:00,63.9,25.4,30.05,NNW,332,17.2,19.2,23,0.00,,---,0.00,,VWS V14.01,2013-01-30 18:02:00,
2013-01-30 12:05:00,65.2,25.4,30.03,NW,304,10.2,22.2,22,0.00,,---,0.00,0.00,VWS V14.01,2013-01-30 18:05:00,
2013-01-30 12:07:00,64.0,25.5,30.05,WNW,294,18.2,18.2,23,0.00,,---,0.00,,VWS V14.01,2013-01-30 18:07:00,
2013-01-30 12:10:00,65.0,26.3,30.03,North,350,8.2,20.2,23,0.00,,---,0.00,0.00,VWS V14.01,2013-01-30 18:10:00,
2013-01-30 12:12:00,64.5,26.9,30.05,NW,314,6.2,15.2,24,0.00,,---,0.00,,VWS V14.01,2013-01-30 18:12:00,
2013-01-30 12:15:00,64.8,27.2,30.02,NNW,332,15.2,24.2,24,0.00,,---,0.00,0.00,VWS V14.01,2013-01-30 18:15:00,
2013-01-30 12:17:00,65.0,27.4,30.04,North,349,12.2,17.2,24,0.00,,---,0.00,,VWS V14.01,2013-01-30 18:17:00,
2013-01-30 12:20:00,64.8,25.1,30.02,WNW,294,8.2,17.2,22,0.00,,---,0.00,0.00,VWS V14.01,2013-01-30 18:20:00,
2013-01-30 12:22:00,64.8,24.0,30.04,West,279,11.2,14.2,21,0.00,,---,0.00,,VWS V14.01,2013-01-30 18:22:00,
2013-01-30 12:25:00,65.0,26.3,30.02,NW,314,11.2,22.2,23,0.00,,---,0.00,0.00,VWS V14.01,2013-01-30 18:25:00,
2013-01-30 12:27:00,65.0,25.3,30.04,NW,304,7.2,17.2,22,0.00,,---,0.00,,VWS V14.01,2013-01-30 18:27:00,
2013-01-30 12:30:00,65.3,25.5,30.02,NNW,346,11.2,22.2,22,0.00,,---,0.00,0.00,VWS V14.01,2013-01-30 18:30:00,
2013-01-30 12:32:00,65.2,24.3,30.04,NW,313,10.2,21.2,21,0.00,,---,0.00,,VWS V14.01,2013-01-30 18:32:00,
2013-01-30 12:35:00,65.6,23.5,30.02,NW,323,12.2,24.2,20,0.00,,---,0.00,0.00,VWS V14.01,2013-01-30 18:35:00,
2013-01-30 12:37:00,65.0,25.3,30.04,WNW,284,16.2,17.2,22,0.00,,---,0.00,,VWS V14.01,2013-01-30 18:37:00,
2013-01-30 12:40:00,66.1,23.9,30.02,NNW,328,12.2,26.2,20,0.00,,---,0.00,0.00,VWS V14.01,2013-01-30 18:40:00,
2013-01-30 12:42:00,65.0,26.3,30.04,WNW,286,17.2,17.2,23,0.00,,---,0.00,,VWS V14.01,2013-01-30 18:42:00,
2013-01-30 12:45:00,65.5,22.2,30.02,WNW,290,13.2,27.2,19,0.00,,---,0.00,0.00,VWS V14.01,2013-01-30 18:45:00,
2013-01-30 12:47:00,65.0,28.4,30.03,North,360,7.2,12.2,25,0.00,,---,0.00,,VWS V14.01,2013-01-30 18:47:00,
2013-01-30 12:50:00,65.5,22.2,30.02,NW,315,13.2,28.2,19,0.00,,---,0.00,0.00,VWS V14.01,2013-01-30 18:50:00,
2013-01-30 12:52:00,65.0,26.3,30.03,NNW,335,11.2,21.2,23,0.00,,---,0.00,,VWS V14.01,2013-01-30 18:52:00,
2013-01-30 12:55:00,65.6,23.5,30.02,NNW,339,20.2,22.2,20,0.00,,---,0.00,0.00,VWS V14.01,2013-01-30 18:55:00,
2013-01-30 12:57:00,65.2,27.5,30.03,North,5,8.2,18.2,24,0.00,,---,0.00,,VWS V14.01,2013-01-30 18:57:00,
2013-01-30 13:00:00,65.3,24.4,30.01,NNW,341,7.2,24.2,21,0.00,,---,0.00,0.00,VWS V14.01,2013-01-30 19:00:00,
2013-01-30 13:02:00,65.0,24.1,30.03,NNW,336,10.2,18.2,21,0.00,,---,0.00,,VWS V14.01,2013-01-30 19:02:00,
2013-01-30 13:05:00,65.3,23.2,30.01,North,9,13.2,22.2,20,0.00,,---,0.00,0.00,VWS V14.01,2013-01-30 19:05:00,
2013-01-30 13:07:00,65.0,25.3,30.03,West,263,18.2,20.2,22,0.00,,---,0.00,,VWS V14.01,2013-01-30 19:07:00,
2013-01-30 13:10:00,65.5,24.6,30.01,NNE,23,11.2,22.2,21,0.00,,---,0.00,0.00,VWS V14.01,2013-01-30 19:10:00,
2013-01-30 13:12:00,65.0,27.4,30.03,NNW,329,7.2,15.2,24,0.00,,---,0.00,,VWS V14.01,2013-01-30 19:12:00,
2013-01-30 13:15:00,65.6,25.8,30.01,WNW,297,10.2,20.2,22,0.00,,---,0.00,0.00,VWS V14.01,2013-01-30 19:15:00,
2013-01-30 13:17:00,64.8,26.2,30.02,NNW,340,11.2,16.2,23,0.00,,---,0.00,,VWS V14.01,2013-01-30 19:17:00,
2013-01-30 13:20:00,65.6,25.8,30.01,NW,309,7.2,19.2,22,0.00,,---,0.00,0.00,VWS V14.01,2013-01-30 19:20:00,
2013-01-30 13:22:00,65.0,27.4,30.02,NNW,336,7.2,19.2,24,0.00,,---,0.00,,VWS V14.01,2013-01-30 19:22:00,
2013-01-30 13:25:00,65.5,25.7,30.01,North,360,7.2,25.2,22,0.00,,---,0.00,0.00,VWS V14.01,2013-01-30 19:25:00,
2013-01-30 13:27:00,65.2,25.4,30.02,North,355,12.2,19.2,22,0.00,,---,0.00,,VWS V14.01,2013-01-30 19:27:00,
2013-01-30 13:30:00,65.5,26.8,30.01,NW,322,13.2,19.2,23,0.00,,---,0.00,0.00,VWS V14.01,2013-01-30 19:30:00,
2013-01-30 13:32:00,65.5,24.6,30.02,WNW,296,24.2,24.2,21,0.00,,---,0.00,,VWS V14.01,2013-01-30 19:32:00,
2013-01-30 13:35:00,65.5,26.8,30.01,NNE,13,12.2,20.2,23,0.00,,---,0.00,0.00,VWS V14.01,2013-01-30 19:35:00,
2013-01-30 13:37:00,65.8,24.8,30.02,NW,317,13.2,17.2,21,0.00,,---,0.00,,VWS V14.01,2013-01-30 19:37:00,
2013-01-30 13:40:00,65.8,27.0,30.01,NNW,338,13.2,23.2,23,0.00,,---,0.00,0.00,VWS V14.01,2013-01-30 19:40:00,
2013-01-30 13:42:00,65.8,22.4,30.02,North,360,19.2,23.2,19,0.00,,---,0.00,,VWS V14.01,2013-01-30 19:42:00,
2013-01-30 13:45:00,66.1,26.2,30.00,North,355,13.2,19.2,22,0.00,,---,0.00,0.00,VWS V14.01,2013-01-30 19:45:00,
2013-01-30 13:47:00,65.5,23.4,30.02,North,349,10.2,23.2,20,0.00,,---,0.00,,VWS V14.01,2013-01-30 19:47:00,
2013-01-30 13:50:00,66.1,26.2,30.00,NNW,340,8.2,17.2,22,0.00,,---,0.00,0.00,VWS V14.01,2013-01-30 19:50:00,
2013-01-30 13:52:00,65.3,22.0,30.02,North,360,14.2,22.2,19,0.00,,---,0.00,,VWS V14.01,2013-01-30 19:52:00,
2013-01-30 13:55:00,66.3,25.2,30.00,NW,309,11.2,21.2,21,0.00,,---,0.00,0.00,VWS V14.01,2013-01-30 19:55:00,
2013-01-30 13:57:00,65.5,23.4,30.02,NNW,334,10.2,24.2,20,0.00,,---,0.00,,VWS V14.01,2013-01-30 19:57:00,
2013-01-30 14:00:00,66.4,26.4,30.00,NNW,332,16.2,18.2,22,0.00,,---,0.00,0.00,VWS V14.01,2013-01-30 20:00:00,
2013-01-30 14:02:00,65.5,25.7,30.01,NNE,14,12.2,17.2,22,0.00,,---,0.00,,VWS V14.01,2013-01-30 20:02:00,
2013-01-30 14:05:00,66.8,27.8,30.00,NW,323,6.2,20.2,23,0.00,,---,0.00,0.00,VWS V14.01,2013-01-30 20:05:00,
2013-01-30 14:07:00,65.3,24.4,30.01,NNW,341,12.2,22.2,21,0.00,,---,0.00,,VWS V14.01,2013-01-30 20:07:00,
2013-01-30 14:10:00,66.9,23.3,30.00,NNW,332,14.2,24.2,19,0.00,,---,0.00,0.00,VWS V14.01,2013-01-30 20:10:00,
2013-01-30 14:12:00,65.5,24.6,30.01,NNW,335,6.2,20.2,21,0.00,,---,0.00,,VWS V14.01,2013-01-30 20:12:00,
2013-01-30 14:15:00,67.1,23.5,30.00,NW,319,12.2,21.2,19,0.00,,---,0.00,0.00,VWS V14.01,2013-01-30 20:15:00,
2013-01-30 14:17:00,65.6,25.8,30.01,NNW,344,11.2,15.2,22,0.00,,---,0.00,,VWS V14.01,2013-01-30 20:17:00,
2013-01-30 14:20:00,67.3,24.9,30.00,NNW,329,11.2,19.2,20,0.00,,---,0.00,0.00,VWS V14.01,2013-01-30 20:20:00,
2013-01-30 14:22:00,65.6,24.6,30.01,NW,306,11.2,17.2,21,0.00,,---,0.00,,VWS V14.01,2013-01-30 20:22:00,
2013-01-30 14:25:00,67.3,26.1,30.00,NNW,344,15.2,22.2,21,0.00,,---,0.00,0.00,VWS V14.01,2013-01-30 20:25:00,
2013-01-30 14:27:00,65.5,25.7,30.01,NW,309,15.2,19.2,22,0.00,,---,0.00,,VWS V14.01,2013-01-30 20:27:00,
2013-01-30 14:30:00,67.4,25.0,30.00,WNW,300,11.2,21.2,20,0.00,,---,0.00,0.00,VWS V14.01,2013-01-30 20:30:00,
2013-01-30 14:32:00,65.6,26.8,30.01,NW,316,13.2,13.2,23,0.00,,---,0.00,,VWS V14.01,2013-01-30 20:32:00,
2013-01-30 14:35:00,67.4,27.3,30.00,WNW,298,13.2,20.2,22,0.00,,---,0.00,0.00,VWS V14.01,2013-01-30 20:35:00,
2013-01-30 14:37:00,65.6,27.9,30.01,WNW,301,15.2,19.2,24,0.00,,---,0.00,,VWS V14.01,2013-01-30 20:37:00,
2013-01-30 14:40:00,67.4,22.5,30.00,NW,317,18.2,24.2,18,0.00,,---,0.00,0.00,VWS V14.01,2013-01-30 20:40:00,
2013-01-30 14:42:00,66.0,26.1,30.01,NW,319,13.2,15.2,22,0.00,,---,0.00,,VWS V14.01,2013-01-30 20:42:00,
2013-01-30 14:45:00,67.4,22.5,30.00,NW,307,14.2,21.2,18,0.00,,---,0.00,0.00,VWS V14.01,2013-01-30 20:45:00,
2013-01-30 14:47:00,66.1,26.2,30.00,NNW,346,11.2,14.2,22,0.00,,---,0.00,,VWS V14.01,2013-01-30 20:47:00,
2013-01-30 14:50:00,67.3,23.7,30.00,NW,321,17.2,22.2,19,0.00,,---,0.00,0.00,VWS V14.01,2013-01-30 20:50:00,
2013-01-30 14:52:00,66.3,27.4,30.00,NNW,329,13.2,16.2,23,0.00,,---,0.00,,VWS V14.01,2013-01-30 20:52:00,
2013-01-30 14:55:00,66.9,20.7,30.00,NW,318,17.2,25.2,17,0.00,,---,0.00,0.00,VWS V14.01,2013-01-30 20:55:00,
2013-01-30 14:57:00,66.3,26.4,30.00,NNW,344,9.2,18.2,22,0.00,,---,0.00,,VWS V14.01,2013-01-30 20:57:00,
2013-01-30 15:00:00,66.8,20.6,30.00,WNW,301,9.2,24.2,17,0.00,,---,0.00,0.00,VWS V14.01,2013-01-30 21:00:00,
2013-01-30 15:02:00,66.4,25.3,30.00,NW,311,9.2,19.2,21,0.00,,---,0.00,,VWS V14.01,2013-01-30 21:02:00,
2013-01-30 15:05:00,66.9,20.7,30.00,NW,321,16.2,21.2,17,0.00,,---,0.00,0.00,VWS V14.01,2013-01-30 21:05:00,
2013-01-30 15:07:00,66.9,27.9,30.00,North,11,7.2,15.2,23,0.00,,---,0.00,,VWS V14.01,2013-01-30 21:07:00,
2013-01-30 15:10:00,66.8,22.0,30.00,NNW,344,10.2,22.2,18,0.00,,---,0.00,0.00,VWS V14.01,2013-01-30 21:10:00,
2013-01-30 15:12:00,66.9,23.3,30.00,NW,307,21.2,21.2,19,0.00,,---,0.00,,VWS V14.01,2013-01-30 21:12:00,
2013-01-30 15:15:00,66.4,18.9,30.01,NNW,340,18.2,19.2,16,0.00,,---,0.00,0.00,VWS V14.01,2013-01-30 21:15:00,
2013-01-30 15:17:00,67.1,23.5,30.00,WNW,293,13.2,16.2,19,0.00,,---,0.00,,VWS V14.01,2013-01-30 21:17:00,
2013-01-30 15:20:00,66.4,22.9,30.01,NW,307,7.2,21.2,19,0.00,,---,0.00,0.00,VWS V14.01,2013-01-30 21:20:00,
2013-01-30 15:22:00,67.3,24.9,30.00,NW,304,15.2,16.2,20,0.00,,---,0.00,,VWS V14.01,2013-01-30 21:22:00,
2013-01-30 15:25:00,66.6,21.8,30.01,NNW,344,13.2,15.2,18,0.00,,---,0.00,0.00,VWS V14.01,2013-01-30 21:25:00,
2013-01-30 15:27:00,67.3,23.7,30.00,WNW,303,16.2,21.2,19,0.00,,---,0.00,,VWS V14.01,2013-01-30 21:27:00,
2013-01-30 15:30:00,66.6,25.5,30.01,NW,325,5.2,21.2,21,0.00,,---,0.00,0.00,VWS V14.01,2013-01-30 21:30:00,
2013-01-30 15:32:00,67.6,25.1,30.00,NW,305,15.2,20.2,20,0.00,,---,0.00,,VWS V14.01,2013-01-30 21:32:00,
2013-01-30 15:35:00,66.3,27.4,30.01,NW,313,8.2,19.2,23,0.00,,---,0.00,0.00,VWS V14.01,2013-01-30 21:35:00,
2013-01-30 15:37:00,67.3,24.9,30.00,NW,320,14.2,23.2,20,0.00,,---,0.00,,VWS V14.01,2013-01-30 21:37:00,
2013-01-30 15:40:00,65.8,23.6,30.01,WNW,296,8.2,17.2,20,0.00,,---,0.00,0.00,VWS V14.01,2013-01-30 21:40:00,
2013-01-30 15:42:00,67.4,22.5,30.00,NNW,346,9.2,21.2,18,0.00,,---,0.00,,VWS V14.01,2013-01-30 21:42:00,
2013-01-30 15:45:00,65.6,24.6,30.03,NNW,342,10.2,18.2,21,0.00,,---,0.00,0.00,VWS V14.01,2013-01-30 21:45:00,
2013-01-30 15:47:00,67.4,22.5,30.00,NNE,13,11.2,22.2,18,0.00,,---,0.00,,VWS V14.01,2013-01-30 21:47:00,
2013-01-30 15:50:00,65.3,22.0,30.03,NW,317,12.2,21.2,19,0.00,,---,0.00,0.00,VWS V14.01,2013-01-30 21:50:00,
2013-01-30 15:52:00,67.1,22.2,30.00,North,355,8.2,17.2,18,0.00,,---,0.00,,VWS V14.01,2013-01-30 21:52:00,
2013-01-30 15:55:00,65.2,25.4,30.03,NNW,331,11.2,17.2,22,0.00,,---,0.00,0.00,VWS V14.01,2013-01-30 21:55:00,
2013-01-30 15:57:00,66.9,20.7,30.00,NW,317,14.2,23.2,17,0.00,,---,0.00,,VWS V14.01,2013-01-30 21:57:00,
2013-01-30 16:00:00,64.8,24.0,30.04,NW,326,11.2,17.2,21,0.00,,---,0.00,0.00,VWS V14.01,2013-01-30 22:00:00,
2013-01-30 16:02:00,66.8,20.6,30.00,WNW,292,7.2,21.2,17,0.00,,---,0.00,,VWS V14.01,2013-01-30 22:02:00,
2013-01-30 16:05:00,64.5,24.8,30.04,NNW,329,10.2,18.2,22,0.00,,---,0.00,0.00,VWS V14.01,2013-01-30 22:05:00,
2013-01-30 16:07:00,66.9,22.0,30.00,NW,319,15.2,21.2,18,0.00,,---,0.00,,VWS V14.01,2013-01-30 22:07:00,
2013-01-30 16:10:00,64.3,25.7,30.04,North,360,8.2,18.2,23,0.00,,---,0.00,0.00,VWS V14.01,2013-01-30 22:10:00,
2013-01-30 16:12:00,66.6,21.8,30.00,NNW,335,12.2,19.2,18,0.00,,---,0.00,,VWS V14.01,2013-01-30 22:12:00,
2013-01-30 16:15:00,64.3,23.6,30.04,NNW,343,13.2,20.2,21,0.00,,---,0.00,0.00,VWS V14.01,2013-01-30 22:15:00,
2013-01-30 16:17:00,66.3,20.2,30.01,NNW,330,8.2,21.2,17,0.00,,---,0.00,,VWS V14.01,2013-01-30 22:17:00,
2013-01-30 16:20:00,64.2,24.6,30.04,NW,310,4.2,19.2,22,0.00,,---,0.00,0.00,VWS V14.01,2013-01-30 22:20:00,
2013-01-30 16:22:00,66.4,22.9,30.01,WNW,301,10.2,14.2,19,0.00,,---,0.00,,VWS V14.01,2013-01-30 22:22:00,
2013-01-30 16:25:00,64.0,25.5,30.04,NNW,341,6.2,17.2,23,0.00,,---,0.00,0.00,VWS V14.01,2013-01-30 22:25:00,
2013-01-30 16:27:00,66.6,21.8,30.01,NW,313,4.2,21.2,18,0.00,,---,0.00,,VWS V14.01,2013-01-30 22:27:00,
2013-01-30 16:30:00,63.9,25.4,30.05,WNW,303,7.2,17.2,23,0.00,,---,0.00,0.00,VWS V14.01,2013-01-30 22:30:00,
2013-01-30 16:32:00,66.6,25.5,30.01,NW,313,10.2,13.2,21,0.00,,---,0.00,,VWS V14.01,2013-01-30 22:32:00,
2013-01-30 16:35:00,63.4,26.0,30.05,North,360,13.2,17.2,24,0.00,,---,0.00,0.00,VWS V14.01,2013-01-30 22:35:00,
2013-01-30 16:37:00,66.3,27.4,30.01,NNW,346,15.2,17.2,23,0.00,,---,0.00,,VWS V14.01,2013-01-30 22:37:00,
2013-01-30 16:40:00,63.1,23.7,30.05,NNW,331,16.2,17.2,22,0.00,,---,0.00,0.00,VWS V14.01,2013-01-30 22:40:00,
2013-01-30 16:42:00,65.6,19.6,30.01,North,350,7.2,12.2,17,0.00,,---,0.00,,VWS V14.01,2013-01-30 22:42:00,
2013-01-30 16:45:00,62.7,26.4,30.06,NNW,337,12.2,16.2,25,0.00,,---,0.00,0.00,VWS V14.01,2013-01-30 22:45:00,
2013-01-30 16:47:00,65.5,24.6,30.03,North,350,17.2,21.2,21,0.00,,---,0.00,,VWS V14.01,2013-01-30 22:47:00,
2013-01-30 16:50:00,62.4,26.1,30.06,NW,321,8.2,17.2,25,0.00,,---,0.00,0.00,VWS V14.01,2013-01-30 22:50:00,
2013-01-30 16:52:00,65.2,21.9,30.03,NW,321,11.2,13.2,19,0.00,,---,0.00,,VWS V14.01,2013-01-30 22:52:00,
2013-01-30 16:55:00,62.3,27.0,30.06,NW,323,5.2,18.2,26,0.00,,---,0.00,0.00,VWS V14.01,2013-01-30 22:55:00,
2013-01-30 16:57:00,65.2,25.4,30.03,NNW,330,16.2,16.2,22,0.00,,---,0.00,,VWS V14.01,2013-01-30 22:57:00,
2013-01-30 17:00:00,62.0,24.8,30.06,North,351,9.2,22.2,24,0.00,,---,0.00,0.00,VWS V14.01,2013-01-30 23:00:00,
2013-01-30 17:02:00,64.8,24.0,30.04,North,351,13.2,15.2,21,0.00,,---,0.00,,VWS V14.01,2013-01-30 23:02:00,
2013-01-30 17:05:00,62.0,25.8,30.06,NW,319,6.2,13.2,25,0.00,,---,0.00,0.00,VWS V14.01,2013-01-30 23:05:00,
2013-01-30 17:07:00,64.5,24.8,30.04,NW,326,10.2,18.2,22,0.00,,---,0.00,,VWS V14.01,2013-01-30 23:07:00,
2013-01-30 17:10:00,61.8,26.6,30.06,NW,321,7.2,13.2,26,0.00,,---,0.00,0.00,VWS V14.01,2013-01-30 23:10:00,
2013-01-30 17:12:00,64.3,26.8,30.04,NNW,348,7.2,15.2,24,0.00,,---,0.00,,VWS V14.01,2013-01-30 23:12:00,
2013-01-30 17:15:00,61.5,26.3,30.07,North,355,8.2,15.2,26,0.00,,---,0.00,0.00,VWS V14.01,2013-01-30 23:15:00,
2013-01-30 17:17:00,64.3,23.6,30.04,NW,319,12.2,14.2,21,0.00,,---,0.00,,VWS V14.01,2013-01-30 23:17:00,
2013-01-30 17:20:00,61.5,24.4,30.07,NW,319,7.2,14.2,24,0.00,,---,0.00,0.00,VWS V14.01,2013-01-30 23:20:00,
2013-01-30 17:22:00,64.2,24.6,30.04,NW,318,9.2,9.2,22,0.00,,---,0.00,,VWS V14.01,2013-01-30 23:22:00,
2013-01-30 17:25:00,61.3,25.2,30.07,NW,319,6.2,14.2,25,0.00,,---,0.00,0.00,VWS V14.01,2013-01-30 23:25:00,
2013-01-30 17:27:00,64.0,26.5,30.04,WNW,288,12.2,13.2,24,0.00,,---,0.00,,VWS V14.01,2013-01-30 23:27:00,
2013-01-30 17:30:00,61.2,26.1,30.07,NW,321,6.2,12.2,26,0.00,,---,0.00,0.00,VWS V14.01,2013-01-30 23:30:00,
2013-01-30 17:32:00,63.7,26.3,30.05,NW,316,7.2,12.2,24,0.00,,---,0.00,,VWS V14.01,2013-01-30 23:32:00,
2013-01-30 17:35:00,61.0,25.0,30.07,North,355,8.2,12.2,25,0.00,,---,0.00,0.00,VWS V14.01,2013-01-30 23:35:00,
2013-01-30 17:37:00,63.4,25.0,30.05,NNW,340,10.2,16.2,23,0.00,,---,0.00,,VWS V14.01,2013-01-30 23:37:00,
2013-01-30 17:40:00,61.0,25.0,30.07,WNW,301,6.2,13.2,25,0.00,,---,0.00,0.00,VWS V14.01,2013-01-30 23:40:00,
2013-01-30 17:42:00,63.1,24.7,30.05,NW,321,7.2,16.2,23,0.00,,---,0.00,,VWS V14.01,2013-01-30 23:42:00,
2013-01-30 17:45:00,60.9,24.9,30.08,NW,312,7.2,13.2,25,0.00,,---,0.00,0.00,VWS V14.01,2013-01-30 23:45:00,
2013-01-30 17:47:00,62.7,27.4,30.05,North,360,15.2,15.2,26,0.00,,---,0.00,,VWS V14.01,2013-01-30 23:47:00,
2013-01-30 17:50:00,60.9,23.9,30.08,NW,316,6.2,12.2,24,0.00,,---,0.00,0.00,VWS V14.01,2013-01-30 23:50:00,
2013-01-30 17:52:00,62.4,26.1,30.05,NW,314,13.2,17.2,25,0.00,,---,0.00,,VWS V14.01,2013-01-30 23:52:00,
2013-01-30 17:55:00,60.7,24.7,30.08,NNW,330,3.2,12.2,25,0.00,,---,0.00,0.00,VWS V14.01,2013-01-30 23:55:00,
2013-01-30 17:57:00,62.1,26.8,30.05,NE,42,16.2,16.2,26,0.00,,---,0.00,,VWS V14.01,2013-01-30 23:57:00,
2013-01-30 18:00:00,60.5,23.5,30.10,NNW,348,8.2,10.2,24,0.00,,---,0.00,0.00,VWS V14.01,2013-01-31 00:00:00,
2013-01-30 18:02:00,62.0,24.8,30.06,NW,315,9.2,13.2,24,0.00,,---,0.00,,VWS V14.01,2013-01-31 00:02:00,
2013-01-30 18:05:00,60.7,25.6,30.10,NNW,331,5.2,12.2,26,0.00,,---,0.00,0.00,VWS V14.01,2013-01-31 00:05:00,
2013-01-30 18:07:00,61.8,25.6,30.06,WNW,296,5.2,13.2,25,0.00,,---,0.00,,VWS V14.01,2013-01-31 00:07:00,
2013-01-30 18:10:00,60.5,25.5,30.10,NNW,332,5.2,11.2,26,0.00,,---,0.00,0.00,VWS V14.01,2013-01-31 00:10:00,
2013-01-30 18:12:00,61.8,27.5,30.06,NNW,333,11.2,12.2,27,0.00,,---,0.00,,VWS V14.01,2013-01-31 00:12:00,
2013-01-30 18:15:00,60.4,26.3,30.10,North,355,10.2,13.2,27,0.00,,---,0.00,0.00,VWS V14.01,2013-01-31 00:15:00,
2013-01-30 18:17:00,61.5,26.3,30.07,NW,307,10.2,12.2,26,0.00,,---,0.00,,VWS V14.01,2013-01-31 00:17:00,
2013-01-30 18:20:00,60.4,25.4,30.10,North,350,6.2,12.2,26,0.00,,---,0.00,0.00,VWS V14.01,2013-01-31 00:20:00,
2013-01-30 18:22:00,61.5,24.4,30.07,NNW,329,5.2,12.2,24,0.00,,---,0.00,,VWS V14.01,2013-01-31 00:22:00,
2013-01-30 18:25:00,60.2,24.3,30.10,NNW,331,8.2,14.2,25,0.00,,---,0.00,0.00,VWS V14.01,2013-01-31 00:25:00,
2013-01-30 18:27:00,61.3,26.1,30.07,North,351,7.2,11.2,26,0.00,,---,0.00,,VWS V14.01,2013-01-31 00:27:00,
2013-01-30 18:30:00,60.2,26.1,30.11,NNW,331,5.2,11.2,27,0.00,,---,0.00,0.00,VWS V14.01,2013-01-31 00:30:00,
2013-01-30 18:32:00,61.2,26.1,30.07,NNW,342,7.2,12.2,26,0.00,,---,0.00,,VWS V14.01,2013-01-31 00:32:00,
2013-01-30 18:35:00,59.9,26.7,30.11,North,355,6.2,7.2,28,0.00,,---,0.00,0.00,VWS V14.01,2013-01-31 00:35:00,
2013-01-30 18:37:00,61.0,25.0,30.07,NW,323,5.2,11.2,25,0.00,,---,0.00,,VWS V14.01,2013-01-31 00:37:00,
2013-01-30 18:40:00,59.6,27.3,30.11,NNW,342,3.2,8.2,29,0.00,,---,0.00,0.00,VWS V14.01,2013-01-31 00:40:00,
2013-01-30 18:42:00,60.9,25.8,30.07,NNW,339,5.2,11.2,26,0.00,,---,0.00,,VWS V14.01,2013-01-31 00:42:00,
2013-01-30 18:45:00,59.5,27.2,30.12,North,355,4.2,13.2,29,0.00,,---,0.00,0.00,VWS V14.01,2013-01-31 00:45:00,
2013-01-30 18:47:00,60.9,24.9,30.08,NW,317,3.2,9.2,25,0.00,,---,0.00,,VWS V14.01,2013-01-31 00:47:00,
2013-01-30 18:50:00,59.3,26.2,30.12,NNE,17,6.2,13.2,28,0.00,,---,0.00,0.00,VWS V14.01,2013-01-31 00:50:00,
2013-01-30 18:52:00,60.9,23.9,30.08,NNW,329,6.2,6.2,24,0.00,,---,0.00,,VWS V14.01,2013-01-31 00:52:00,
2013-01-30 18:55:00,59.6,26.5,30.12,North,355,5.2,10.2,28,0.00,,---,0.00,0.00,VWS V14.01,2013-01-31 00:55:00,
2013-01-30 18:57:00,60.7,24.7,30.08,NNW,329,7.2,7.2,25,0.00,,---,0.00,,VWS V14.01,2013-01-31 00:57:00,
2013-01-30 19:00:00,59.5,24.6,30.13,North,350,4.2,8.2,26,0.00,,---,0.00,0.00,VWS V14.01,2013-01-31 01:00:00,
2013-01-30 19:02:00,60.5,24.5,30.10,NNW,339,4.2,12.2,25,0.00,,---,0.00,,VWS V14.01,2013-01-31 01:02:00,
2013-01-30 19:05:00,59.5,25.5,30.13,NNW,347,6.2,7.2,27,0.00,,---,0.00,0.00,VWS V14.01,2013-01-31 01:05:00,
2013-01-30 19:07:00,60.7,24.7,30.10,NNW,342,4.2,11.2,25,0.00,,---,0.00,,VWS V14.01,2013-01-31 01:07:00,
2013-01-30 19:10:00,59.2,27.8,30.13,NNW,347,5.2,8.2,30,0.00,,---,0.00,0.00,VWS V14.01,2013-01-31 01:10:00,
2013-01-30 19:12:00,60.5,26.4,30.10,North,360,4.2,6.2,27,0.00,,---,0.00,,VWS V14.01,2013-01-31 01:12:00,
2013-01-30 19:15:00,58.9,26.7,30.13,North,5,8.2,8.2,29,0.00,,---,0.00,0.00,VWS V14.01,2013-01-31 01:15:00,
2013-01-30 19:17:00,60.4,26.3,30.10,North,355,6.2,10.2,27,0.00,,---,0.00,,VWS V14.01,2013-01-31 01:17:00,
2013-01-30 19:20:00,59.0,26.0,30.13,North,355,5.2,12.2,28,0.00,,---,0.00,0.00,VWS V14.01,2013-01-31 01:20:00,
2013-01-30 19:22:00,60.2,25.2,30.10,NNW,347,7.2,7.2,26,0.00,,---,0.00,,VWS V14.01,2013-01-31 01:22:00,
2013-01-30 19:25:00,59.0,26.0,30.13,NNW,335,8.2,12.2,28,0.00,,---,0.00,0.00,VWS V14.01,2013-01-31 01:25:00,
2013-01-30 19:27:00,60.2,24.3,30.10,NNW,336,5.2,11.2,25,0.00,,---,0.00,,VWS V14.01,2013-01-31 01:27:00,
2013-01-30 19:30:00,59.0,25.1,30.13,North,360,11.2,11.2,27,0.00,,---,0.00,0.00,VWS V14.01,2013-01-31 01:30:00,
2013-01-30 19:32:00,60.2,26.1,30.11,North,350,6.2,7.2,27,0.00,,---,0.00,,VWS V14.01,2013-01-31 01:32:00,
2013-01-30 19:35:00,58.9,25.0,30.13,North,360,5.2,12.2,27,0.00,,---,0.00,0.00,VWS V14.01,2013-01-31 01:35:00,
2013-01-30 19:37:00,59.9,25.9,30.11,North,11,4.2,7.2,27,0.00,,---,0.00,,VWS V14.01,2013-01-31 01:37:00,
2013-01-30 19:40:00,58.9,24.1,30.13,North,355,6.2,8.2,26,0.00,,---,0.00,0.00,VWS V14.01,2013-01-31 01:40:00,
2013-01-30 19:42:00,59.6,27.3,30.11,NNW,341,4.2,4.2,29,0.00,,---,0.00,,VWS V14.01,2013-01-31 01:42:00,
2013-01-30 19:45:00,58.7,24.8,30.13,North,360,4.2,7.2,27,0.00,,---,0.00,0.00,VWS V14.01,2013-01-31 01:45:00,
2013-01-30 19:47:00,59.5,27.2,30.12,North,355,3.2,6.2,29,0.00,,---,0.00,,VWS V14.01,2013-01-31 01:47:00,
2013-01-30 19:50:00,58.3,25.4,30.13,NNE,21,5.2,8.2,28,0.00,,---,0.00,0.00,VWS V14.01,2013-01-31 01:50:00,
2013-01-30 19:52:00,59.5,25.5,30.12,North,350,7.2,7.2,27,0.00,,---,0.00,,VWS V14.01,2013-01-31 01:52:00,
2013-01-30 19:55:00,58.0,25.9,30.13,North,9,4.2,7.2,29,0.00,,---,0.00,0.00,VWS V14.01,2013-01-31 01:55:00,
2013-01-30 19:57:00,59.6,27.3,30.12,North,351,4.2,6.2,29,0.00,,---,0.00,,VWS V14.01,2013-01-31 01:57:00,
2013-01-30 20:00:00,57.8,25.8,30.14,NNE,16,3.2,7.2,29,0.00,,---,0.00,0.00,VWS V14.01,2013-01-31 02:00:00,
2013-01-30 20:02:00,59.5,24.6,30.13,North,350,5.2,5.2,26,0.00,,---,0.00,,VWS V14.01,2013-01-31 02:02:00,
2013-01-30 20:05:00,57.5,26.3,30.14,NNE,15,6.2,7.2,30,0.00,,---,0.00,0.00,VWS V14.01,2013-01-31 02:05:00,
2013-01-30 20:07:00,59.5,26.4,30.13,North,350,6.2,7.2,28,0.00,,---,0.00,,VWS V14.01,2013-01-31 02:07:00,
2013-01-30 20:10:00,57.5,26.3,30.14,NNE,27,8.2,10.2,30,0.00,,---,0.00,0.00,VWS V14.01,2013-01-31 02:10:00,
2013-01-30 20:12:00,59.2,27.8,30.13,NNW,347,2.2,5.2,30,0.00,,---,0.00,,VWS V14.01,2013-01-31 02:12:00,
2013-01-30 20:15:00,57.5,25.5,30.13,North,5,5.2,8.2,29,0.00,,---,0.00,0.00,VWS V14.01,2013-01-31 02:15:00,
2013-01-30 20:17:00,58.9,25.9,30.13,North,350,5.2,12.2,28,0.00,,---,0.00,,VWS V14.01,2013-01-31 02:17:00,
2013-01-30 20:20:00,57.5,25.5,30.13,NNE,22,10.2,10.2,29,0.00,,---,0.00,0.00,VWS V14.01,2013-01-31 02:20:00,
2013-01-30 20:22:00,58.9,25.9,30.13,North,355,1.2,5.2,28,0.00,,---,0.00,,VWS V14.01,2013-01-31 02:22:00,
2013-01-30 20:25:00,57.8,24.9,30.13,North,360,5.2,11.2,28,0.00,,---,0.00,0.00,VWS V14.01,2013-01-31 02:25:00,
2013-01-30 20:27:00,59.0,25.1,30.13,NNW,336,2.2,8.2,27,0.00,,---,0.00,,VWS V14.01,2013-01-31 02:27:00,
2013-01-30 20:30:00,57.8,24.1,30.15,North,9,5.2,9.2,27,0.00,,---,0.00,0.00,VWS V14.01,2013-01-31 02:30:00,
2013-01-30 20:32:00,59.0,25.1,30.13,North,9,4.2,12.2,27,0.00,,---,0.00,,VWS V14.01,2013-01-31 02:32:00,
2013-01-30 20:35:00,58.1,24.3,30.15,North,5,4.2,11.2,27,0.00,,---,0.00,0.00,VWS V14.01,2013-01-31 02:35:00,
2013-01-30 20:37:00,58.9,25.0,30.13,NNE,24,5.2,6.2,27,0.00,,---,0.00,,VWS V14.01,2013-01-31 02:37:00,
2013-01-30 20:40:00,58.0,25.1,30.15,North,355,5.2,8.2,28,0.00,,---,0.00,0.00,VWS V14.01,2013-01-31 02:40:00,
2013-01-30 20:42:00,58.9,24.1,30.13,North,355,3.2,7.2,26,0.00,,---,0.00,,VWS V14.01,2013-01-31 02:42:00,
2013-01-30 20:45:00,57.6,25.6,30.15,NNW,346,5.2,9.2,29,0.00,,---,0.00,0.00,VWS V14.01,2013-01-31 02:45:00,
2013-01-30 20:47:00,58.6,24.8,30.13,North,360,4.2,5.2,27,0.00,,---,0.00,,VWS V14.01,2013-01-31 02:47:00,
2013-01-30 20:50:00,58.0,24.2,30.15,North,5,7.2,14.2,27,0.00,,---,0.00,0.00,VWS V14.01,2013-01-31 02:50:00,
2013-01-30 20:52:00,58.3,25.4,30.13,North,355,6.2,7.2,28,0.00,,---,0.00,,VWS V14.01,2013-01-31 02:52:00,
2013-01-30 20:55:00,58.0,24.2,30.15,North,360,6.2,12.2,27,0.00,,---,0.00,0.00,VWS V14.01,2013-01-31 02:55:00,
2013-01-30 20:57:00,58.0,26.0,30.13,North,11,4.2,5.2,29,0.00,,---,0.00,,VWS V14.01,2013-01-31 02:57:00,
2013-01-30 21:00:00,58.0,25.1,30.15,NE,42,7.2,14.2,28,0.00,,---,0.00,0.00,VWS V14.01,2013-01-31 03:00:00,
2013-01-30 21:02:00,57.8,25.8,30.14,NNE,16,4.2,4.2,29,0.00,,---,0.00,,VWS V14.01,2013-01-31 03:02:00,
2013-01-30 21:05:00,57.8,24.9,30.15,North,360,5.2,11.2,28,0.00,,---,0.00,0.00,VWS V14.01,2013-01-31 03:05:00,
2013-01-30 21:07:00,57.5,26.3,30.14,North,11,5.2,7.2,30,0.00,,---,0.00,,VWS V14.01,2013-01-31 03:07:00,
2013-01-30 21:10:00,57.6,25.6,30.15,North,350,5.2,9.2,29,0.00,,---,0.00,0.00,VWS V14.01,2013-01-31 03:10:00,
2013-01-30 21:12:00,57.5,26.3,30.14,NNE,26,5.2,8.2,30,0.00,,---,0.00,,VWS V14.01,2013-01-31 03:12:00,
2013-01-30 21:15:00,57.3,27.0,30.16,NNE,25,5.2,11.2,31,0.00,,---,0.00,0.00,VWS V14.01,2013-01-31 03:15:00,
2013-01-30 21:17:00,57.5,26.3,30.13,NNE,13,7.2,7.2,30,0.00,,---,0.00,,VWS V14.01,2013-01-31 03:17:00,
2013-01-30 21:20:00,57.2,27.6,30.16,ENE,61,11.2,11.2,32,0.00,,---,0.00,0.00,VWS V14.01,2013-01-31 03:20:00,
2013-01-30 21:22:00,57.5,25.5,30.13,NNE,13,7.2,11.2,29,0.00,,---,0.00,,VWS V14.01,2013-01-31 03:22:00,
2013-01-30 21:25:00,57.2,27.6,30.16,NNE,31,6.2,11.2,32,0.00,,---,0.00,0.00,VWS V14.01,2013-01-31 03:25:00,
2013-01-30 21:27:00,57.8,24.1,30.13,NNE,13,3.2,8.2,27,0.00,,---,0.00,,VWS V14.01,2013-01-31 03:27:00,
2013-01-30 21:30:00,57.2,26.9,30.16,North,360,6.2,12.2,31,0.00,,---,0.00,0.00,VWS V14.01,2013-01-31 03:30:00,
2013-01-30 21:32:00,57.8,24.1,30.15,North,355,8.2,11.2,27,0.00,,---,0.00,,VWS V14.01,2013-01-31 03:32:00,
2013-01-30 21:35:00,57.0,27.5,30.16,NNE,22,4.2,11.2,32,0.00,,---,0.00,0.00,VWS V14.01,2013-01-31 03:35:00,
2013-01-30 21:37:00,58.1,24.3,30.15,North,5,3.2,6.2,27,0.00,,---,0.00,,VWS V14.01,2013-01-31 03:37:00,
2013-01-30 21:40:00,56.9,27.4,30.16,NNE,19,6.2,11.2,32,0.00,,---,0.00,0.00,VWS V14.01,2013-01-31 03:40:00,
2013-01-30 21:42:00,57.8,24.9,30.15,North,355,4.2,5.2,28,0.00,,---,0.00,,VWS V14.01,2013-01-31 03:42:00,
2013-01-30 21:45:00,56.7,27.2,30.17,NE,34,6.2,10.2,32,0.00,,---,0.00,0.00,VWS V14.01,2013-01-31 03:45:00,
2013-01-30 21:47:00,57.6,25.6,30.15,North,9,12.2,12.2,29,0.00,,---,0.00,,VWS V14.01,2013-01-31 03:47:00,
2013-01-30 21:50:00,56.7,27.9,30.17,NE,49,10.2,13.2,33,0.00,,---,0.00,0.00,VWS V14.01,2013-01-31 03:50:00,
2013-01-30 21:52:00,58.0,24.2,30.15,NNE,16,4.2,8.2,27,0.00,,---,0.00,,VWS V14.01,2013-01-31 03:52:00,
2013-01-30 21:55:00,56.6,28.6,30.17,NE,35,7.2,10.2,34,0.00,,---,0.00,0.00,VWS V14.01,2013-01-31 03:55:00,
2013-01-30 21:57:00,58.0,24.2,30.15,North,9,8.2,8.2,27,0.00,,---,0.00,,VWS V14.01,2013-01-31 03:57:00,
2013-01-30 22:00:00,56.5,28.5,30.18,NE,34,9.2,12.2,34,0.00,,---,0.00,0.00,VWS V14.01,2013-01-31 04:00:00,
2013-01-30 22:02:00,58.0,25.1,30.15,NE,34,4.2,7.2,28,0.00,,---,0.00,,VWS V14.01,2013-01-31 04:02:00,
2013-01-30 22:05:00,56.3,28.3,30.18,NNE,30,8.2,11.2,34,0.00,,---,0.00,0.00,VWS V14.01,2013-01-31 04:05:00,
2013-01-30 22:07:00,57.8,24.9,30.15,North,360,3.2,5.2,28,0.00,,---,0.00,,VWS V14.01,2013-01-31 04:07:00,
2013-01-30 22:10:00,56.3,27.6,30.18,NE,37,6.2,12.2,33,0.00,,---,0.00,0.00,VWS V14.01,2013-01-31 04:10:00,
2013-01-30 22:12:00,57.6,26.4,30.15,North,9,4.2,7.2,30,0.00,,---,0.00,,VWS V14.01,2013-01-31 04:12:00,
2013-01-30 22:15:00,56.5,27.0,30.18,NNE,30,5.2,15.2,32,0.00,,---,0.00,0.00,VWS V14.01,2013-01-31 04:15:00,
2013-01-30 22:17:00,57.3,27.0,30.16,NNE,30,8.2,8.2,31,0.00,,---,0.00,,VWS V14.01,2013-01-31 04:17:00,
2013-01-30 22:20:00,56.5,27.8,30.18,ENE,64,10.2,11.2,33,0.00,,---,0.00,0.00,VWS V14.01,2013-01-31 04:20:00,
2013-01-30 22:22:00,57.2,27.6,30.16,NNE,24,11.2,11.2,32,0.00,,---,0.00,,VWS V14.01,2013-01-31 04:22:00,
2013-01-30 22:25:00,56.5,28.5,30.18,NE,36,10.2,13.2,34,0.00,,---,0.00,0.00,VWS V14.01,2013-01-31 04:25:00,
2013-01-30 22:27:00,57.2,27.6,30.16,North,355,6.2,11.2,32,0.00,,---,0.00,,VWS V14.01,2013-01-31 04:27:00,
2013-01-30 22:30:00,56.5,28.5,30.17,NE,35,7.2,12.2,34,0.00,,---,0.00,0.00,VWS V14.01,2013-01-31 04:30:00,
2013-01-30 22:32:00,57.0,27.5,30.16,NNE,15,9.2,9.2,32,0.00,,---,0.00,,VWS V14.01,2013-01-31 04:32:00,
2013-01-30 22:35:00,56.5,28.5,30.17,ENE,59,11.2,15.2,34,0.00,,---,0.00,0.00,VWS V14.01,2013-01-31 04:35:00,
2013-01-30 22:37:00,57.0,27.5,30.16,NE,48,7.2,7.2,32,0.00,,---,0.00,,VWS V14.01,2013-01-31 04:37:00,
2013-01-30 22:40:00,56.6,29.3,30.17,NE,38,6.2,11.2,35,0.00,,---,0.00,0.00,VWS V14.01,2013-01-31 04:40:00,
2013-01-30 22:42:00,56.9,27.4,30.16,NE,53,7.2,10.2,32,0.00,,---,0.00,,VWS V14.01,2013-01-31 04:42:00,
2013-01-30 22:45:00,56.5,33.1,30.18,NE,48,5.2,8.2,41,0.00,,---,0.00,0.00,VWS V14.01,2013-01-31 04:45:00,
2013-01-30 22:47:00,56.7,27.9,30.17,North,10,7.2,13.2,33,0.00,,---,0.00,,VWS V14.01,2013-01-31 04:47:00,
2013-01-30 22:50:00,56.3,35.2,30.18,ENE,63,6.2,10.2,45,0.00,,---,0.00,0.00,VWS V14.01,2013-01-31 04:50:00,
2013-01-30 22:52:00,56.7,27.9,30.17,NE,51,6.2,10.2,33,0.00,,---,0.00,,VWS V14.01,2013-01-31 04:52:00,
2013-01-30 22:55:00,56.5,35.4,30.18,NE,40,5.2,14.2,45,0.00,,---,0.00,0.00,VWS V14.01,2013-01-31 04:55:00,
2013-01-30 22:56:00,56.6,28.6,30.17,North,355,7.2,8.2,34,0.00,,---,0.00,,VWS V14.01,2013-01-31 04:56:00,
2013-01-30 23:00:00,56.5,28.5,30.18,NE,48,9.2,12.2,34,0.00,,---,0.00,,VWS V14.01,2013-01-31 05:00:00,
2013-01-30 23:01:00,56.5,28.5,30.18,NE,34,9.2,12.2,34,0.00,,---,0.00,,VWS V14.01,2013-01-31 05:01:00,
2013-01-30 23:05:00,56.2,35.2,30.18,NE,55,7.2,8.2,45,0.00,,---,0.00,0.00,VWS V14.01,2013-01-31 05:05:00,
2013-01-30 23:06:00,56.3,28.3,30.18,North,10,7.2,9.2,34,0.00,,---,0.00,,VWS V14.01,2013-01-31 05:06:00,
2013-01-30 23:10:00,55.9,34.3,30.18,ENE,62,5.2,9.2,44,0.00,,---,0.00,0.00,VWS V14.01,2013-01-31 05:10:00,
2013-01-30 23:11:00,56.3,27.6,30.18,NE,34,6.2,10.2,33,0.00,,---,0.00,,VWS V14.01,2013-01-31 05:11:00,
2013-01-30 23:15:00,55.9,34.3,30.18,NE,48,6.2,9.2,44,0.00,,---,0.00,0.00,VWS V14.01,2013-01-31 05:15:00,
2013-01-30 23:16:00,56.5,27.0,30.18,NNE,17,10.2,10.2,32,0.00,,---,0.00,,VWS V14.01,2013-01-31 05:16:00,
2013-01-30 23:20:00,55.9,33.2,30.18,NE,38,4.2,11.2,42,0.00,,---,0.00,0.00,VWS V14.01,2013-01-31 05:20:00,
2013-01-30 23:21:00,56.3,27.6,30.18,NNE,24,11.2,11.2,33,0.00,,---,0.00,,VWS V14.01,2013-01-31 05:21:00,
2013-01-30 23:25:00,55.9,32.6,30.18,ENE,63,7.2,11.2,41,0.00,,---,0.00,0.00,VWS V14.01,2013-01-31 05:25:00,
2013-01-30 23:26:00,56.5,28.5,30.18,NE,46,7.2,11.2,34,0.00,,---,0.00,,VWS V14.01,2013-01-31 05:26:00,
2013-01-30 23:30:00,55.7,31.8,30.18,NE,34,4.2,10.2,40,0.00,,---,0.00,0.00,VWS V14.01,2013-01-31 05:30:00,
2013-01-30 23:31:00,56.5,28.5,30.17,NE,34,8.2,11.2,34,0.00,,---,0.00,,VWS V14.01,2013-01-31 05:31:00,
2013-01-30 23:35:00,55.7,31.1,30.18,NE,53,10.2,10.2,39,0.00,,---,0.00,0.00,VWS V14.01,2013-01-31 05:35:00,
2013-01-30 23:36:00,56.5,28.5,30.17,NE,40,6.2,11.2,34,0.00,,---,0.00,,VWS V14.01,2013-01-31 05:36:00,
2013-01-30 23:40:00,55.7,31.1,30.18,ENE,63,5.2,10.2,39,0.00,,---,0.00,0.00,VWS V14.01,2013-01-31 05:40:00,
2013-01-30 23:41:00,56.6,29.3,30.17,NE,38,5.2,7.2,35,0.00,,---,0.00,,VWS V14.01,2013-01-31 05:41:00,
2013-01-30 23:45:00,55.6,30.4,30.18,NE,38,5.2,8.2,38,0.00,,---,0.00,0.00,VWS V14.01,2013-01-31 05:45:00,
2013-01-30 23:46:00,56.5,33.1,30.18,NE,48,4.2,6.2,41,0.00,,---,0.00,,VWS V14.01,2013-01-31 05:46:00,
2013-01-30 23:50:00,55.4,30.9,30.18,NE,40,5.2,7.2,39,0.00,,---,0.00,0.00,VWS V14.01,2013-01-31 05:50:00,
2013-01-30 23:51:00,56.3,35.2,30.18,ENE,58,11.2,11.2,45,0.00,,---,0.00,,VWS V14.01,2013-01-31 05:51:00,
2013-01-30 23:55:00,55.6,29.1,30.18,NE,53,4.2,8.2,36,0.00,,---,0.00,0.00,VWS V14.01,2013-01-31 05:55:00,
2013-01-30 23:56:00,56.5,35.4,30.18,NE,41,5.2,7.2,45,0.00,,---,0.00,,VWS V14.01,2013-01-31 05:56:00,